<?xml version="1.0" encoding="UTF-8" standalone="no" ?>
<gpx xmlns="http://www.topografix.com/GPX/1/1" xmlns:xsi="http://www.w3.org/2001/XMLSchema-instance" xsi:schemaLocation="http://www.topografix.com/GPX/1/1 http://www.topografix.com/GPX/1/1/gpx.xsd" version="1.1" creator="VisuGPX - https://www.visugpx.com">
  <metadata>
    <name>Sainte Victoire </name>
    <desc><![CDATA[grp_trc:[nouvelles]]]></desc>
  </metadata>
  <trk>
    <name><![CDATA[5 août 2022 à 10:07:42]]></name>
    <cmt><![CDATA[5 août 2022 à 10:07:42]]></cmt>
    <trkseg>
      <trkpt lat="45.47469" lon="6.4163">
        <ele>1363</ele>
        <time>2022-08-05T08:07:43Z</time>
      </trkpt>
      <trkpt lat="45.47469" lon="6.4163">
        <ele>1363</ele>
        <time>2022-08-05T08:07:44Z</time>
      </trkpt>
      <trkpt lat="45.47474" lon="6.41629">
        <ele>1363</ele>
        <time>2022-08-05T08:07:53Z</time>
      </trkpt>
      <trkpt lat="45.47485" lon="6.4163">
        <ele>1364</ele>
        <time>2022-08-05T08:08:06Z</time>
      </trkpt>
      <trkpt lat="45.47497" lon="6.41625">
        <ele>1365</ele>
        <time>2022-08-05T08:08:18Z</time>
      </trkpt>
      <trkpt lat="45.475" lon="6.4162">
        <ele>1365</ele>
        <time>2022-08-05T08:08:23Z</time>
      </trkpt>
      <trkpt lat="45.47504" lon="6.4161">
        <ele>1366</ele>
        <time>2022-08-05T08:08:37Z</time>
      </trkpt>
      <trkpt lat="45.47506" lon="6.41604">
        <ele>1368</ele>
        <time>2022-08-05T08:11:03Z</time>
      </trkpt>
      <trkpt lat="45.47513" lon="6.4157">
        <ele>1370</ele>
        <time>2022-08-05T08:11:41Z</time>
      </trkpt>
      <trkpt lat="45.47515" lon="6.41553">
        <ele>1371</ele>
        <time>2022-08-05T08:12:18Z</time>
      </trkpt>
      <trkpt lat="45.47521" lon="6.41511">
        <ele>1373</ele>
        <time>2022-08-05T08:13:08Z</time>
      </trkpt>
      <trkpt lat="45.47528" lon="6.41465">
        <ele>1376</ele>
        <time>2022-08-05T08:13:41Z</time>
      </trkpt>
      <trkpt lat="45.47536" lon="6.41424">
        <ele>1378</ele>
        <time>2022-08-05T08:14:09Z</time>
      </trkpt>
      <trkpt lat="45.47545" lon="6.41402">
        <ele>1380</ele>
        <time>2022-08-05T08:14:25Z</time>
      </trkpt>
      <trkpt lat="45.47555" lon="6.41389">
        <ele>1381</ele>
        <time>2022-08-05T08:14:37Z</time>
      </trkpt>
      <trkpt lat="45.47584" lon="6.41357">
        <ele>1383</ele>
        <time>2022-08-05T08:15:09Z</time>
      </trkpt>
      <trkpt lat="45.47587" lon="6.41352">
        <ele>1384</ele>
        <time>2022-08-05T08:15:14Z</time>
      </trkpt>
      <trkpt lat="45.47588" lon="6.41346">
        <ele>1384</ele>
        <time>2022-08-05T08:15:19Z</time>
      </trkpt>
      <trkpt lat="45.47592" lon="6.41339">
        <ele>1384</ele>
        <time>2022-08-05T08:15:26Z</time>
      </trkpt>
      <trkpt lat="45.47588" lon="6.41338">
        <ele>1385</ele>
        <time>2022-08-05T08:15:46Z</time>
      </trkpt>
      <trkpt lat="45.47584" lon="6.41346">
        <ele>1385</ele>
        <time>2022-08-05T08:15:56Z</time>
      </trkpt>
      <trkpt lat="45.47584" lon="6.41353">
        <ele>1385</ele>
        <time>2022-08-05T08:16:01Z</time>
      </trkpt>
      <trkpt lat="45.47581" lon="6.41352">
        <ele>1385</ele>
        <time>2022-08-05T08:16:54Z</time>
      </trkpt>
      <trkpt lat="45.4758" lon="6.41345">
        <ele>1385</ele>
        <time>2022-08-05T08:17:09Z</time>
      </trkpt>
      <trkpt lat="45.47577" lon="6.4134">
        <ele>1385</ele>
        <time>2022-08-05T08:17:13Z</time>
      </trkpt>
      <trkpt lat="45.47573" lon="6.41342">
        <ele>1386</ele>
        <time>2022-08-05T08:17:40Z</time>
      </trkpt>
      <trkpt lat="45.47572" lon="6.41336">
        <ele>1387</ele>
        <time>2022-08-05T08:18:49Z</time>
      </trkpt>
      <trkpt lat="45.47562" lon="6.41338">
        <ele>1388</ele>
        <time>2022-08-05T08:18:57Z</time>
      </trkpt>
      <trkpt lat="45.47539" lon="6.41375">
        <ele>1391</ele>
        <time>2022-08-05T08:19:30Z</time>
      </trkpt>
      <trkpt lat="45.47535" lon="6.4138">
        <ele>1391</ele>
        <time>2022-08-05T08:19:35Z</time>
      </trkpt>
      <trkpt lat="45.4753" lon="6.41381">
        <ele>1392</ele>
        <time>2022-08-05T08:19:40Z</time>
      </trkpt>
      <trkpt lat="45.47527" lon="6.41374">
        <ele>1393</ele>
        <time>2022-08-05T08:19:50Z</time>
      </trkpt>
      <trkpt lat="45.47532" lon="6.41363">
        <ele>1394</ele>
        <time>2022-08-05T08:20:00Z</time>
      </trkpt>
      <trkpt lat="45.47551" lon="6.41335">
        <ele>1396</ele>
        <time>2022-08-05T08:20:31Z</time>
      </trkpt>
      <trkpt lat="45.47575" lon="6.41303">
        <ele>1399</ele>
        <time>2022-08-05T08:21:05Z</time>
      </trkpt>
      <trkpt lat="45.47578" lon="6.41298">
        <ele>1400</ele>
        <time>2022-08-05T08:21:10Z</time>
      </trkpt>
      <trkpt lat="45.47583" lon="6.41271">
        <ele>1403</ele>
        <time>2022-08-05T08:21:43Z</time>
      </trkpt>
      <trkpt lat="45.47585" lon="6.41264">
        <ele>1403</ele>
        <time>2022-08-05T08:22:08Z</time>
      </trkpt>
      <trkpt lat="45.47589" lon="6.41253">
        <ele>1404</ele>
        <time>2022-08-05T08:22:18Z</time>
      </trkpt>
      <trkpt lat="45.47611" lon="6.41215">
        <ele>1408</ele>
        <time>2022-08-05T08:22:51Z</time>
      </trkpt>
      <trkpt lat="45.4763" lon="6.41188">
        <ele>1412</ele>
        <time>2022-08-05T08:23:21Z</time>
      </trkpt>
      <trkpt lat="45.47642" lon="6.41173">
        <ele>1414</ele>
        <time>2022-08-05T08:23:39Z</time>
      </trkpt>
      <trkpt lat="45.47644" lon="6.41168">
        <ele>1414</ele>
        <time>2022-08-05T08:23:46Z</time>
      </trkpt>
      <trkpt lat="45.47643" lon="6.41161">
        <ele>1415</ele>
        <time>2022-08-05T08:23:51Z</time>
      </trkpt>
      <trkpt lat="45.47639" lon="6.41157">
        <ele>1415</ele>
        <time>2022-08-05T08:23:58Z</time>
      </trkpt>
      <trkpt lat="45.47627" lon="6.41162">
        <ele>1417</ele>
        <time>2022-08-05T08:24:13Z</time>
      </trkpt>
      <trkpt lat="45.4761" lon="6.41166">
        <ele>1419</ele>
        <time>2022-08-05T08:24:38Z</time>
      </trkpt>
      <trkpt lat="45.47599" lon="6.41174">
        <ele>1421</ele>
        <time>2022-08-05T08:24:53Z</time>
      </trkpt>
      <trkpt lat="45.47595" lon="6.41178">
        <ele>1421</ele>
        <time>2022-08-05T08:25:00Z</time>
      </trkpt>
      <trkpt lat="45.47592" lon="6.41171">
        <ele>1423</ele>
        <time>2022-08-05T08:26:00Z</time>
      </trkpt>
      <trkpt lat="45.47587" lon="6.41168">
        <ele>1425</ele>
        <time>2022-08-05T08:26:15Z</time>
      </trkpt>
      <trkpt lat="45.47588" lon="6.4116">
        <ele>1429</ele>
        <time>2022-08-05T08:26:42Z</time>
      </trkpt>
      <trkpt lat="45.47589" lon="6.41151">
        <ele>1431</ele>
        <time>2022-08-05T08:27:02Z</time>
      </trkpt>
      <trkpt lat="45.47585" lon="6.41147">
        <ele>1433</ele>
        <time>2022-08-05T08:27:12Z</time>
      </trkpt>
      <trkpt lat="45.47586" lon="6.41141">
        <ele>1435</ele>
        <time>2022-08-05T08:27:27Z</time>
      </trkpt>
      <trkpt lat="45.47586" lon="6.41127">
        <ele>1439</ele>
        <time>2022-08-05T08:28:44Z</time>
      </trkpt>
      <trkpt lat="45.4759" lon="6.41121">
        <ele>1440</ele>
        <time>2022-08-05T08:29:00Z</time>
      </trkpt>
      <trkpt lat="45.47592" lon="6.41114">
        <ele>1442</ele>
        <time>2022-08-05T08:29:20Z</time>
      </trkpt>
      <trkpt lat="45.47592" lon="6.41106">
        <ele>1445</ele>
        <time>2022-08-05T08:29:40Z</time>
      </trkpt>
      <trkpt lat="45.47592" lon="6.411">
        <ele>1447</ele>
        <time>2022-08-05T08:30:00Z</time>
      </trkpt>
      <trkpt lat="45.4759" lon="6.41093">
        <ele>1448</ele>
        <time>2022-08-05T08:30:25Z</time>
      </trkpt>
      <trkpt lat="45.47591" lon="6.41086">
        <ele>1450</ele>
        <time>2022-08-05T08:30:41Z</time>
      </trkpt>
      <trkpt lat="45.4759" lon="6.4108">
        <ele>1453</ele>
        <time>2022-08-05T08:30:58Z</time>
      </trkpt>
      <trkpt lat="45.47587" lon="6.41073">
        <ele>1455</ele>
        <time>2022-08-05T08:31:18Z</time>
      </trkpt>
      <trkpt lat="45.47588" lon="6.41065">
        <ele>1458</ele>
        <time>2022-08-05T08:31:38Z</time>
      </trkpt>
      <trkpt lat="45.47584" lon="6.41054">
        <ele>1463</ele>
        <time>2022-08-05T08:33:00Z</time>
      </trkpt>
      <trkpt lat="45.47583" lon="6.41053">
        <ele>1463</ele>
        <time>2022-08-05T08:35:18Z</time>
      </trkpt>
      <trkpt lat="45.47593" lon="6.41041">
        <ele>1464</ele>
        <time>2022-08-05T08:35:48Z</time>
      </trkpt>
      <trkpt lat="45.47601" lon="6.41026">
        <ele>1465</ele>
        <time>2022-08-05T08:36:18Z</time>
      </trkpt>
      <trkpt lat="45.47608" lon="6.4102">
        <ele>1466</ele>
        <time>2022-08-05T08:36:29Z</time>
      </trkpt>
      <trkpt lat="45.47623" lon="6.40996">
        <ele>1468</ele>
        <time>2022-08-05T08:37:02Z</time>
      </trkpt>
      <trkpt lat="45.47636" lon="6.40977">
        <ele>1470</ele>
        <time>2022-08-05T08:37:26Z</time>
      </trkpt>
      <trkpt lat="45.4764" lon="6.40967">
        <ele>1471</ele>
        <time>2022-08-05T08:37:36Z</time>
      </trkpt>
      <trkpt lat="45.47651" lon="6.40954">
        <ele>1473</ele>
        <time>2022-08-05T08:37:58Z</time>
      </trkpt>
      <trkpt lat="45.47668" lon="6.40942">
        <ele>1475</ele>
        <time>2022-08-05T08:38:25Z</time>
      </trkpt>
      <trkpt lat="45.47675" lon="6.40939">
        <ele>1476</ele>
        <time>2022-08-05T08:38:41Z</time>
      </trkpt>
      <trkpt lat="45.47681" lon="6.40932">
        <ele>1477</ele>
        <time>2022-08-05T08:38:51Z</time>
      </trkpt>
      <trkpt lat="45.47685" lon="6.40933">
        <ele>1477</ele>
        <time>2022-08-05T08:38:58Z</time>
      </trkpt>
      <trkpt lat="45.47688" lon="6.4093">
        <ele>1478</ele>
        <time>2022-08-05T08:39:57Z</time>
      </trkpt>
      <trkpt lat="45.47699" lon="6.40923">
        <ele>1479</ele>
        <time>2022-08-05T08:40:27Z</time>
      </trkpt>
      <trkpt lat="45.47705" lon="6.40917">
        <ele>1480</ele>
        <time>2022-08-05T08:40:37Z</time>
      </trkpt>
      <trkpt lat="45.4771" lon="6.40915">
        <ele>1481</ele>
        <time>2022-08-05T08:40:57Z</time>
      </trkpt>
      <trkpt lat="45.47713" lon="6.4091">
        <ele>1481</ele>
        <time>2022-08-05T08:41:02Z</time>
      </trkpt>
      <trkpt lat="45.47732" lon="6.40882">
        <ele>1484</ele>
        <time>2022-08-05T08:41:33Z</time>
      </trkpt>
      <trkpt lat="45.47754" lon="6.40855">
        <ele>1487</ele>
        <time>2022-08-05T08:42:11Z</time>
      </trkpt>
      <trkpt lat="45.47759" lon="6.40849">
        <ele>1488</ele>
        <time>2022-08-05T08:42:21Z</time>
      </trkpt>
      <trkpt lat="45.47768" lon="6.40844">
        <ele>1489</ele>
        <time>2022-08-05T08:42:33Z</time>
      </trkpt>
      <trkpt lat="45.47788" lon="6.40846">
        <ele>1490</ele>
        <time>2022-08-05T08:42:59Z</time>
      </trkpt>
      <trkpt lat="45.47792" lon="6.40846">
        <ele>1490</ele>
        <time>2022-08-05T08:43:14Z</time>
      </trkpt>
      <trkpt lat="45.47797" lon="6.40846">
        <ele>1490</ele>
        <time>2022-08-05T08:43:20Z</time>
      </trkpt>
      <trkpt lat="45.47801" lon="6.40849">
        <ele>1490</ele>
        <time>2022-08-05T08:43:24Z</time>
      </trkpt>
      <trkpt lat="45.47806" lon="6.40847">
        <ele>1491</ele>
        <time>2022-08-05T08:43:29Z</time>
      </trkpt>
      <trkpt lat="45.47812" lon="6.40845">
        <ele>1491</ele>
        <time>2022-08-05T08:43:36Z</time>
      </trkpt>
      <trkpt lat="45.47817" lon="6.40845">
        <ele>1492</ele>
        <time>2022-08-05T08:43:43Z</time>
      </trkpt>
      <trkpt lat="45.47821" lon="6.40845">
        <ele>1492</ele>
        <time>2022-08-05T08:44:03Z</time>
      </trkpt>
      <trkpt lat="45.47817" lon="6.40838">
        <ele>1491</ele>
        <time>2022-08-05T08:45:45Z</time>
      </trkpt>
      <trkpt lat="45.47816" lon="6.40843">
        <ele>1490</ele>
        <time>2022-08-05T08:46:14Z</time>
      </trkpt>
      <trkpt lat="45.47819" lon="6.40847">
        <ele>1491</ele>
        <time>2022-08-05T08:46:43Z</time>
      </trkpt>
      <trkpt lat="45.47825" lon="6.40847">
        <ele>1491</ele>
        <time>2022-08-05T08:47:18Z</time>
      </trkpt>
      <trkpt lat="45.47827" lon="6.40855">
        <ele>1491</ele>
        <time>2022-08-05T08:48:01Z</time>
      </trkpt>
      <trkpt lat="45.4783" lon="6.40861">
        <ele>1492</ele>
        <time>2022-08-05T08:48:11Z</time>
      </trkpt>
      <trkpt lat="45.47828" lon="6.40868">
        <ele>1493</ele>
        <time>2022-08-05T08:48:31Z</time>
      </trkpt>
      <trkpt lat="45.47826" lon="6.40886">
        <ele>1494</ele>
        <time>2022-08-05T08:48:52Z</time>
      </trkpt>
      <trkpt lat="45.4782" lon="6.40922">
        <ele>1497</ele>
        <time>2022-08-05T08:49:26Z</time>
      </trkpt>
      <trkpt lat="45.47818" lon="6.40932">
        <ele>1498</ele>
        <time>2022-08-05T08:49:38Z</time>
      </trkpt>
      <trkpt lat="45.4782" lon="6.40939">
        <ele>1499</ele>
        <time>2022-08-05T08:49:59Z</time>
      </trkpt>
      <trkpt lat="45.4782" lon="6.40947">
        <ele>1499</ele>
        <time>2022-08-05T08:50:04Z</time>
      </trkpt>
      <trkpt lat="45.47819" lon="6.40955">
        <ele>1499</ele>
        <time>2022-08-05T08:50:11Z</time>
      </trkpt>
      <trkpt lat="45.47819" lon="6.40965">
        <ele>1500</ele>
        <time>2022-08-05T08:50:18Z</time>
      </trkpt>
      <trkpt lat="45.47825" lon="6.40965">
        <ele>1501</ele>
        <time>2022-08-05T08:50:30Z</time>
      </trkpt>
      <trkpt lat="45.47835" lon="6.40946">
        <ele>1506</ele>
        <time>2022-08-05T08:51:05Z</time>
      </trkpt>
      <trkpt lat="45.47845" lon="6.4093">
        <ele>1509</ele>
        <time>2022-08-05T08:51:37Z</time>
      </trkpt>
      <trkpt lat="45.4785" lon="6.40925">
        <ele>1511</ele>
        <time>2022-08-05T08:51:54Z</time>
      </trkpt>
      <trkpt lat="45.47855" lon="6.40914">
        <ele>1514</ele>
        <time>2022-08-05T08:52:14Z</time>
      </trkpt>
      <trkpt lat="45.47857" lon="6.40908">
        <ele>1514</ele>
        <time>2022-08-05T08:52:24Z</time>
      </trkpt>
      <trkpt lat="45.47855" lon="6.40913">
        <ele>1515</ele>
        <time>2022-08-05T08:52:53Z</time>
      </trkpt>
      <trkpt lat="45.4785" lon="6.40925">
        <ele>1513</ele>
        <time>2022-08-05T08:53:15Z</time>
      </trkpt>
      <trkpt lat="45.47845" lon="6.40926">
        <ele>1510</ele>
        <time>2022-08-05T08:53:40Z</time>
      </trkpt>
      <trkpt lat="45.47837" lon="6.40936">
        <ele>1508</ele>
        <time>2022-08-05T08:53:53Z</time>
      </trkpt>
      <trkpt lat="45.47827" lon="6.40957">
        <ele>1504</ele>
        <time>2022-08-05T08:54:25Z</time>
      </trkpt>
      <trkpt lat="45.47824" lon="6.40961">
        <ele>1503</ele>
        <time>2022-08-05T08:54:35Z</time>
      </trkpt>
      <trkpt lat="45.4782" lon="6.40972">
        <ele>1501</ele>
        <time>2022-08-05T08:54:56Z</time>
      </trkpt>
      <trkpt lat="45.4782" lon="6.40979">
        <ele>1501</ele>
        <time>2022-08-05T08:55:01Z</time>
      </trkpt>
      <trkpt lat="45.47823" lon="6.40984">
        <ele>1502</ele>
        <time>2022-08-05T08:55:06Z</time>
      </trkpt>
      <trkpt lat="45.47822" lon="6.40993">
        <ele>1502</ele>
        <time>2022-08-05T08:55:14Z</time>
      </trkpt>
      <trkpt lat="45.47825" lon="6.41017">
        <ele>1504</ele>
        <time>2022-08-05T08:55:42Z</time>
      </trkpt>
      <trkpt lat="45.47827" lon="6.41018">
        <ele>1503</ele>
        <time>2022-08-05T08:57:35Z</time>
      </trkpt>
      <trkpt lat="45.47826" lon="6.41026">
        <ele>1503</ele>
        <time>2022-08-05T08:57:55Z</time>
      </trkpt>
      <trkpt lat="45.47832" lon="6.41065">
        <ele>1506</ele>
        <time>2022-08-05T08:58:34Z</time>
      </trkpt>
      <trkpt lat="45.47837" lon="6.41083">
        <ele>1507</ele>
        <time>2022-08-05T08:58:54Z</time>
      </trkpt>
      <trkpt lat="45.47836" lon="6.41091">
        <ele>1507</ele>
        <time>2022-08-05T08:59:04Z</time>
      </trkpt>
      <trkpt lat="45.47847" lon="6.41089">
        <ele>1509</ele>
        <time>2022-08-05T08:59:34Z</time>
      </trkpt>
      <trkpt lat="45.47853" lon="6.41094">
        <ele>1509</ele>
        <time>2022-08-05T09:00:42Z</time>
      </trkpt>
      <trkpt lat="45.47859" lon="6.411">
        <ele>1511</ele>
        <time>2022-08-05T09:00:57Z</time>
      </trkpt>
      <trkpt lat="45.47861" lon="6.41106">
        <ele>1512</ele>
        <time>2022-08-05T09:01:14Z</time>
      </trkpt>
      <trkpt lat="45.4786" lon="6.41113">
        <ele>1513</ele>
        <time>2022-08-05T09:01:35Z</time>
      </trkpt>
      <trkpt lat="45.4786" lon="6.4112">
        <ele>1513</ele>
        <time>2022-08-05T09:01:40Z</time>
      </trkpt>
      <trkpt lat="45.47863" lon="6.41128">
        <ele>1514</ele>
        <time>2022-08-05T09:01:49Z</time>
      </trkpt>
      <trkpt lat="45.47867" lon="6.41138">
        <ele>1513</ele>
        <time>2022-08-05T09:01:59Z</time>
      </trkpt>
      <trkpt lat="45.47868" lon="6.41151">
        <ele>1513</ele>
        <time>2022-08-05T09:02:09Z</time>
      </trkpt>
      <trkpt lat="45.47868" lon="6.41157">
        <ele>1513</ele>
        <time>2022-08-05T09:02:16Z</time>
      </trkpt>
      <trkpt lat="45.4787" lon="6.41163">
        <ele>1514</ele>
        <time>2022-08-05T09:02:27Z</time>
      </trkpt>
      <trkpt lat="45.47868" lon="6.41171">
        <ele>1514</ele>
        <time>2022-08-05T09:02:38Z</time>
      </trkpt>
      <trkpt lat="45.4787" lon="6.41182">
        <ele>1515</ele>
        <time>2022-08-05T09:02:47Z</time>
      </trkpt>
      <trkpt lat="45.47871" lon="6.4121">
        <ele>1517</ele>
        <time>2022-08-05T09:03:14Z</time>
      </trkpt>
      <trkpt lat="45.47873" lon="6.41216">
        <ele>1518</ele>
        <time>2022-08-05T09:03:24Z</time>
      </trkpt>
      <trkpt lat="45.47876" lon="6.41222">
        <ele>1519</ele>
        <time>2022-08-05T09:03:34Z</time>
      </trkpt>
      <trkpt lat="45.47878" lon="6.4124">
        <ele>1521</ele>
        <time>2022-08-05T09:04:14Z</time>
      </trkpt>
      <trkpt lat="45.47876" lon="6.41247">
        <ele>1522</ele>
        <time>2022-08-05T09:04:26Z</time>
      </trkpt>
      <trkpt lat="45.4788" lon="6.41263">
        <ele>1523</ele>
        <time>2022-08-05T09:04:48Z</time>
      </trkpt>
      <trkpt lat="45.47884" lon="6.41269">
        <ele>1524</ele>
        <time>2022-08-05T09:05:03Z</time>
      </trkpt>
      <trkpt lat="45.47894" lon="6.41293">
        <ele>1526</ele>
        <time>2022-08-05T09:05:33Z</time>
      </trkpt>
      <trkpt lat="45.47895" lon="6.41299">
        <ele>1526</ele>
        <time>2022-08-05T09:05:38Z</time>
      </trkpt>
      <trkpt lat="45.47901" lon="6.41308">
        <ele>1527</ele>
        <time>2022-08-05T09:05:48Z</time>
      </trkpt>
      <trkpt lat="45.47904" lon="6.41317">
        <ele>1526</ele>
        <time>2022-08-05T09:06:00Z</time>
      </trkpt>
      <trkpt lat="45.47909" lon="6.41321">
        <ele>1527</ele>
        <time>2022-08-05T09:06:10Z</time>
      </trkpt>
      <trkpt lat="45.47911" lon="6.41329">
        <ele>1527</ele>
        <time>2022-08-05T09:06:20Z</time>
      </trkpt>
      <trkpt lat="45.47914" lon="6.4132">
        <ele>1527</ele>
        <time>2022-08-05T09:06:50Z</time>
      </trkpt>
      <trkpt lat="45.47911" lon="6.41314">
        <ele>1527</ele>
        <time>2022-08-05T09:07:05Z</time>
      </trkpt>
      <trkpt lat="45.47907" lon="6.4132">
        <ele>1527</ele>
        <time>2022-08-05T09:07:20Z</time>
      </trkpt>
      <trkpt lat="45.47904" lon="6.41315">
        <ele>1527</ele>
        <time>2022-08-05T09:07:37Z</time>
      </trkpt>
      <trkpt lat="45.47906" lon="6.41309">
        <ele>1527</ele>
        <time>2022-08-05T09:07:52Z</time>
      </trkpt>
      <trkpt lat="45.47898" lon="6.41298">
        <ele>1527</ele>
        <time>2022-08-05T09:08:08Z</time>
      </trkpt>
      <trkpt lat="45.47895" lon="6.41305">
        <ele>1527</ele>
        <time>2022-08-05T09:08:20Z</time>
      </trkpt>
      <trkpt lat="45.479" lon="6.41311">
        <ele>1527</ele>
        <time>2022-08-05T09:08:31Z</time>
      </trkpt>
      <trkpt lat="45.47901" lon="6.41317">
        <ele>1527</ele>
        <time>2022-08-05T09:08:58Z</time>
      </trkpt>
      <trkpt lat="45.4791" lon="6.41325">
        <ele>1527</ele>
        <time>2022-08-05T09:09:13Z</time>
      </trkpt>
      <trkpt lat="45.47916" lon="6.41331">
        <ele>1527</ele>
        <time>2022-08-05T09:09:24Z</time>
      </trkpt>
      <trkpt lat="45.47926" lon="6.41343">
        <ele>1528</ele>
        <time>2022-08-05T09:09:55Z</time>
      </trkpt>
      <trkpt lat="45.47942" lon="6.41357">
        <ele>1530</ele>
        <time>2022-08-05T09:10:52Z</time>
      </trkpt>
      <trkpt lat="45.47948" lon="6.4136">
        <ele>1531</ele>
        <time>2022-08-05T09:11:02Z</time>
      </trkpt>
      <trkpt lat="45.47954" lon="6.4137">
        <ele>1532</ele>
        <time>2022-08-05T09:11:14Z</time>
      </trkpt>
      <trkpt lat="45.47959" lon="6.41375">
        <ele>1533</ele>
        <time>2022-08-05T09:11:31Z</time>
      </trkpt>
      <trkpt lat="45.47965" lon="6.4138">
        <ele>1534</ele>
        <time>2022-08-05T09:11:42Z</time>
      </trkpt>
      <trkpt lat="45.47969" lon="6.41385">
        <ele>1534</ele>
        <time>2022-08-05T09:11:47Z</time>
      </trkpt>
      <trkpt lat="45.47976" lon="6.41387">
        <ele>1535</ele>
        <time>2022-08-05T09:12:02Z</time>
      </trkpt>
      <trkpt lat="45.47991" lon="6.41389">
        <ele>1536</ele>
        <time>2022-08-05T09:12:22Z</time>
      </trkpt>
      <trkpt lat="45.47996" lon="6.41395">
        <ele>1536</ele>
        <time>2022-08-05T09:12:31Z</time>
      </trkpt>
      <trkpt lat="45.48" lon="6.41396">
        <ele>1535</ele>
        <time>2022-08-05T09:12:35Z</time>
      </trkpt>
      <trkpt lat="45.48021" lon="6.41397">
        <ele>1534</ele>
        <time>2022-08-05T09:12:56Z</time>
      </trkpt>
      <trkpt lat="45.48028" lon="6.414">
        <ele>1534</ele>
        <time>2022-08-05T09:13:08Z</time>
      </trkpt>
      <trkpt lat="45.48034" lon="6.41398">
        <ele>1534</ele>
        <time>2022-08-05T09:13:18Z</time>
      </trkpt>
      <trkpt lat="45.48042" lon="6.41403">
        <ele>1533</ele>
        <time>2022-08-05T09:13:43Z</time>
      </trkpt>
      <trkpt lat="45.48047" lon="6.41403">
        <ele>1534</ele>
        <time>2022-08-05T09:13:54Z</time>
      </trkpt>
      <trkpt lat="45.48052" lon="6.41405">
        <ele>1535</ele>
        <time>2022-08-05T09:14:04Z</time>
      </trkpt>
      <trkpt lat="45.48061" lon="6.41405">
        <ele>1536</ele>
        <time>2022-08-05T09:14:17Z</time>
      </trkpt>
      <trkpt lat="45.48062" lon="6.41411">
        <ele>1537</ele>
        <time>2022-08-05T09:14:24Z</time>
      </trkpt>
      <trkpt lat="45.48066" lon="6.41413">
        <ele>1538</ele>
        <time>2022-08-05T09:14:37Z</time>
      </trkpt>
      <trkpt lat="45.48071" lon="6.41416">
        <ele>1538</ele>
        <time>2022-08-05T09:14:48Z</time>
      </trkpt>
      <trkpt lat="45.48076" lon="6.41415">
        <ele>1538</ele>
        <time>2022-08-05T09:14:52Z</time>
      </trkpt>
      <trkpt lat="45.48088" lon="6.41402">
        <ele>1537</ele>
        <time>2022-08-05T09:15:14Z</time>
      </trkpt>
      <trkpt lat="45.48094" lon="6.41401">
        <ele>1537</ele>
        <time>2022-08-05T09:15:24Z</time>
      </trkpt>
      <trkpt lat="45.48099" lon="6.414">
        <ele>1538</ele>
        <time>2022-08-05T09:15:34Z</time>
      </trkpt>
      <trkpt lat="45.48106" lon="6.414">
        <ele>1538</ele>
        <time>2022-08-05T09:15:44Z</time>
      </trkpt>
      <trkpt lat="45.48113" lon="6.41405">
        <ele>1537</ele>
        <time>2022-08-05T09:15:54Z</time>
      </trkpt>
      <trkpt lat="45.48119" lon="6.41407">
        <ele>1537</ele>
        <time>2022-08-05T09:16:04Z</time>
      </trkpt>
      <trkpt lat="45.48124" lon="6.41413">
        <ele>1536</ele>
        <time>2022-08-05T09:16:15Z</time>
      </trkpt>
      <trkpt lat="45.48129" lon="6.41413">
        <ele>1536</ele>
        <time>2022-08-05T09:16:19Z</time>
      </trkpt>
      <trkpt lat="45.48138" lon="6.41418">
        <ele>1536</ele>
        <time>2022-08-05T09:16:36Z</time>
      </trkpt>
      <trkpt lat="45.48142" lon="6.41422">
        <ele>1535</ele>
        <time>2022-08-05T09:16:46Z</time>
      </trkpt>
      <trkpt lat="45.4815" lon="6.41434">
        <ele>1535</ele>
        <time>2022-08-05T09:17:21Z</time>
      </trkpt>
      <trkpt lat="45.48154" lon="6.41437">
        <ele>1535</ele>
        <time>2022-08-05T09:17:26Z</time>
      </trkpt>
      <trkpt lat="45.48159" lon="6.41441">
        <ele>1535</ele>
        <time>2022-08-05T09:17:36Z</time>
      </trkpt>
      <trkpt lat="45.48166" lon="6.41447">
        <ele>1536</ele>
        <time>2022-08-05T09:17:46Z</time>
      </trkpt>
      <trkpt lat="45.48175" lon="6.41472">
        <ele>1538</ele>
        <time>2022-08-05T09:18:25Z</time>
      </trkpt>
      <trkpt lat="45.48179" lon="6.41475">
        <ele>1539</ele>
        <time>2022-08-05T09:18:31Z</time>
      </trkpt>
      <trkpt lat="45.48185" lon="6.41487">
        <ele>1539</ele>
        <time>2022-08-05T09:18:46Z</time>
      </trkpt>
      <trkpt lat="45.48191" lon="6.41492">
        <ele>1539</ele>
        <time>2022-08-05T09:18:56Z</time>
      </trkpt>
      <trkpt lat="45.48197" lon="6.41497">
        <ele>1539</ele>
        <time>2022-08-05T09:19:08Z</time>
      </trkpt>
      <trkpt lat="45.482" lon="6.41503">
        <ele>1539</ele>
        <time>2022-08-05T09:19:14Z</time>
      </trkpt>
      <trkpt lat="45.48206" lon="6.4151">
        <ele>1538</ele>
        <time>2022-08-05T09:19:27Z</time>
      </trkpt>
      <trkpt lat="45.48209" lon="6.41516">
        <ele>1537</ele>
        <time>2022-08-05T09:19:30Z</time>
      </trkpt>
      <trkpt lat="45.48216" lon="6.41517">
        <ele>1536</ele>
        <time>2022-08-05T09:19:57Z</time>
      </trkpt>
      <trkpt lat="45.48222" lon="6.41529">
        <ele>1534</ele>
        <time>2022-08-05T09:20:14Z</time>
      </trkpt>
      <trkpt lat="45.48233" lon="6.41538">
        <ele>1532</ele>
        <time>2022-08-05T09:20:35Z</time>
      </trkpt>
      <trkpt lat="45.48237" lon="6.41548">
        <ele>1531</ele>
        <time>2022-08-05T09:21:06Z</time>
      </trkpt>
      <trkpt lat="45.48242" lon="6.41555">
        <ele>1530</ele>
        <time>2022-08-05T09:21:28Z</time>
      </trkpt>
      <trkpt lat="45.48246" lon="6.41558">
        <ele>1528</ele>
        <time>2022-08-05T09:21:43Z</time>
      </trkpt>
      <trkpt lat="45.48247" lon="6.41566">
        <ele>1526</ele>
        <time>2022-08-05T09:21:58Z</time>
      </trkpt>
      <trkpt lat="45.48247" lon="6.41575">
        <ele>1523</ele>
        <time>2022-08-05T09:22:13Z</time>
      </trkpt>
      <trkpt lat="45.48252" lon="6.41577">
        <ele>1522</ele>
        <time>2022-08-05T09:22:18Z</time>
      </trkpt>
      <trkpt lat="45.4826" lon="6.41584">
        <ele>1520</ele>
        <time>2022-08-05T09:22:30Z</time>
      </trkpt>
      <trkpt lat="45.48262" lon="6.41591">
        <ele>1519</ele>
        <time>2022-08-05T09:22:40Z</time>
      </trkpt>
      <trkpt lat="45.48265" lon="6.41596">
        <ele>1518</ele>
        <time>2022-08-05T09:23:22Z</time>
      </trkpt>
      <trkpt lat="45.48273" lon="6.41606">
        <ele>1515</ele>
        <time>2022-08-05T09:23:43Z</time>
      </trkpt>
      <trkpt lat="45.48277" lon="6.41611">
        <ele>1515</ele>
        <time>2022-08-05T09:23:59Z</time>
      </trkpt>
      <trkpt lat="45.48283" lon="6.41618">
        <ele>1514</ele>
        <time>2022-08-05T09:24:09Z</time>
      </trkpt>
      <trkpt lat="45.48287" lon="6.41621">
        <ele>1513</ele>
        <time>2022-08-05T09:24:24Z</time>
      </trkpt>
      <trkpt lat="45.4829" lon="6.41628">
        <ele>1512</ele>
        <time>2022-08-05T09:24:34Z</time>
      </trkpt>
      <trkpt lat="45.48301" lon="6.41641">
        <ele>1510</ele>
        <time>2022-08-05T09:25:05Z</time>
      </trkpt>
      <trkpt lat="45.48296" lon="6.41636">
        <ele>1511</ele>
        <time>2022-08-05T09:25:21Z</time>
      </trkpt>
      <trkpt lat="45.48298" lon="6.41635">
        <ele>1511</ele>
        <time>2022-08-05T09:25:54Z</time>
      </trkpt>
      <trkpt lat="45.48298" lon="6.41632">
        <ele>1512</ele>
        <time>2022-08-05T09:28:07Z</time>
      </trkpt>
      <trkpt lat="45.48302" lon="6.4164">
        <ele>1512</ele>
        <time>2022-08-05T09:29:24Z</time>
      </trkpt>
      <trkpt lat="45.483" lon="6.41645">
        <ele>1512</ele>
        <time>2022-08-05T09:29:37Z</time>
      </trkpt>
      <trkpt lat="45.48306" lon="6.41644">
        <ele>1511</ele>
        <time>2022-08-05T09:29:57Z</time>
      </trkpt>
      <trkpt lat="45.48308" lon="6.4165">
        <ele>1510</ele>
        <time>2022-08-05T09:30:01Z</time>
      </trkpt>
      <trkpt lat="45.48309" lon="6.41656">
        <ele>1509</ele>
        <time>2022-08-05T09:30:05Z</time>
      </trkpt>
      <trkpt lat="45.4831" lon="6.41662">
        <ele>1509</ele>
        <time>2022-08-05T09:30:08Z</time>
      </trkpt>
      <trkpt lat="45.48315" lon="6.41665">
        <ele>1509</ele>
        <time>2022-08-05T09:30:12Z</time>
      </trkpt>
      <trkpt lat="45.48319" lon="6.41668">
        <ele>1509</ele>
        <time>2022-08-05T09:30:16Z</time>
      </trkpt>
      <trkpt lat="45.48323" lon="6.41672">
        <ele>1509</ele>
        <time>2022-08-05T09:30:20Z</time>
      </trkpt>
      <trkpt lat="45.48326" lon="6.41685">
        <ele>1510</ele>
        <time>2022-08-05T09:30:27Z</time>
      </trkpt>
      <trkpt lat="45.48327" lon="6.41691">
        <ele>1510</ele>
        <time>2022-08-05T09:30:30Z</time>
      </trkpt>
      <trkpt lat="45.4833" lon="6.41697">
        <ele>1511</ele>
        <time>2022-08-05T09:30:34Z</time>
      </trkpt>
      <trkpt lat="45.48337" lon="6.41705">
        <ele>1511</ele>
        <time>2022-08-05T09:30:41Z</time>
      </trkpt>
      <trkpt lat="45.48351" lon="6.41722">
        <ele>1510</ele>
        <time>2022-08-05T09:30:56Z</time>
      </trkpt>
      <trkpt lat="45.48355" lon="6.41723">
        <ele>1509</ele>
        <time>2022-08-05T09:31:01Z</time>
      </trkpt>
      <trkpt lat="45.4836" lon="6.41722">
        <ele>1509</ele>
        <time>2022-08-05T09:31:05Z</time>
      </trkpt>
      <trkpt lat="45.48364" lon="6.41719">
        <ele>1509</ele>
        <time>2022-08-05T09:31:09Z</time>
      </trkpt>
      <trkpt lat="45.48375" lon="6.41717">
        <ele>1511</ele>
        <time>2022-08-05T09:31:20Z</time>
      </trkpt>
      <trkpt lat="45.4838" lon="6.41715">
        <ele>1512</ele>
        <time>2022-08-05T09:31:27Z</time>
      </trkpt>
      <trkpt lat="45.48356" lon="6.41698">
        <ele>1517</ele>
        <time>2022-08-05T09:31:57Z</time>
      </trkpt>
      <trkpt lat="45.48352" lon="6.41693">
        <ele>1518</ele>
        <time>2022-08-05T09:32:05Z</time>
      </trkpt>
      <trkpt lat="45.48347" lon="6.41683">
        <ele>1520</ele>
        <time>2022-08-05T09:32:15Z</time>
      </trkpt>
      <trkpt lat="45.48349" lon="6.41681">
        <ele>1526</ele>
        <time>2022-08-05T09:32:45Z</time>
      </trkpt>
      <trkpt lat="45.48369" lon="6.41681">
        <ele>1529</ele>
        <time>2022-08-05T09:33:06Z</time>
      </trkpt>
      <trkpt lat="45.48384" lon="6.4168">
        <ele>1533</ele>
        <time>2022-08-05T09:33:26Z</time>
      </trkpt>
      <trkpt lat="45.48391" lon="6.41681">
        <ele>1535</ele>
        <time>2022-08-05T09:33:37Z</time>
      </trkpt>
      <trkpt lat="45.48401" lon="6.41679">
        <ele>1537</ele>
        <time>2022-08-05T09:33:48Z</time>
      </trkpt>
      <trkpt lat="45.48405" lon="6.41676">
        <ele>1537</ele>
        <time>2022-08-05T09:33:53Z</time>
      </trkpt>
      <trkpt lat="45.48418" lon="6.41668">
        <ele>1540</ele>
        <time>2022-08-05T09:34:12Z</time>
      </trkpt>
      <trkpt lat="45.48429" lon="6.41667">
        <ele>1542</ele>
        <time>2022-08-05T09:34:26Z</time>
      </trkpt>
      <trkpt lat="45.48437" lon="6.41662">
        <ele>1543</ele>
        <time>2022-08-05T09:34:35Z</time>
      </trkpt>
      <trkpt lat="45.48455" lon="6.41654">
        <ele>1549</ele>
        <time>2022-08-05T09:34:59Z</time>
      </trkpt>
      <trkpt lat="45.48484" lon="6.41654">
        <ele>1554</ele>
        <time>2022-08-05T09:35:31Z</time>
      </trkpt>
      <trkpt lat="45.48488" lon="6.41655">
        <ele>1556</ele>
        <time>2022-08-05T09:35:38Z</time>
      </trkpt>
      <trkpt lat="45.48493" lon="6.41651">
        <ele>1556</ele>
        <time>2022-08-05T09:35:42Z</time>
      </trkpt>
      <trkpt lat="45.48499" lon="6.41652">
        <ele>1557</ele>
        <time>2022-08-05T09:35:49Z</time>
      </trkpt>
      <trkpt lat="45.48505" lon="6.41651">
        <ele>1558</ele>
        <time>2022-08-05T09:35:57Z</time>
      </trkpt>
      <trkpt lat="45.4851" lon="6.41647">
        <ele>1560</ele>
        <time>2022-08-05T09:36:08Z</time>
      </trkpt>
      <trkpt lat="45.48518" lon="6.41645">
        <ele>1562</ele>
        <time>2022-08-05T09:36:24Z</time>
      </trkpt>
      <trkpt lat="45.48522" lon="6.41648">
        <ele>1563</ele>
        <time>2022-08-05T09:36:29Z</time>
      </trkpt>
      <trkpt lat="45.48527" lon="6.41654">
        <ele>1564</ele>
        <time>2022-08-05T09:36:36Z</time>
      </trkpt>
      <trkpt lat="45.48535" lon="6.41664">
        <ele>1565</ele>
        <time>2022-08-05T09:36:47Z</time>
      </trkpt>
      <trkpt lat="45.4854" lon="6.41668">
        <ele>1567</ele>
        <time>2022-08-05T09:36:55Z</time>
      </trkpt>
      <trkpt lat="45.48564" lon="6.41674">
        <ele>1571</ele>
        <time>2022-08-05T09:37:25Z</time>
      </trkpt>
      <trkpt lat="45.48584" lon="6.41677">
        <ele>1574</ele>
        <time>2022-08-05T09:37:46Z</time>
      </trkpt>
      <trkpt lat="45.48599" lon="6.41678">
        <ele>1578</ele>
        <time>2022-08-05T09:38:05Z</time>
      </trkpt>
      <trkpt lat="45.48599" lon="6.41664">
        <ele>1581</ele>
        <time>2022-08-05T09:38:17Z</time>
      </trkpt>
      <trkpt lat="45.48597" lon="6.41655">
        <ele>1583</ele>
        <time>2022-08-05T09:38:27Z</time>
      </trkpt>
      <trkpt lat="45.48594" lon="6.41647">
        <ele>1585</ele>
        <time>2022-08-05T09:38:37Z</time>
      </trkpt>
      <trkpt lat="45.4859" lon="6.41644">
        <ele>1586</ele>
        <time>2022-08-05T09:38:42Z</time>
      </trkpt>
      <trkpt lat="45.48586" lon="6.41627">
        <ele>1590</ele>
        <time>2022-08-05T09:39:03Z</time>
      </trkpt>
      <trkpt lat="45.48584" lon="6.41621">
        <ele>1591</ele>
        <time>2022-08-05T09:39:09Z</time>
      </trkpt>
      <trkpt lat="45.48581" lon="6.41617">
        <ele>1592</ele>
        <time>2022-08-05T09:39:14Z</time>
      </trkpt>
      <trkpt lat="45.48579" lon="6.41609">
        <ele>1594</ele>
        <time>2022-08-05T09:39:23Z</time>
      </trkpt>
      <trkpt lat="45.48573" lon="6.41603">
        <ele>1595</ele>
        <time>2022-08-05T09:39:29Z</time>
      </trkpt>
      <trkpt lat="45.48567" lon="6.41602">
        <ele>1595</ele>
        <time>2022-08-05T09:39:32Z</time>
      </trkpt>
      <trkpt lat="45.48563" lon="6.41596">
        <ele>1596</ele>
        <time>2022-08-05T09:39:35Z</time>
      </trkpt>
      <trkpt lat="45.48557" lon="6.41597">
        <ele>1596</ele>
        <time>2022-08-05T09:39:38Z</time>
      </trkpt>
      <trkpt lat="45.48553" lon="6.41598">
        <ele>1596</ele>
        <time>2022-08-05T09:39:41Z</time>
      </trkpt>
      <trkpt lat="45.48537" lon="6.4159">
        <ele>1597</ele>
        <time>2022-08-05T09:39:56Z</time>
      </trkpt>
      <trkpt lat="45.48521" lon="6.41575">
        <ele>1602</ele>
        <time>2022-08-05T09:40:25Z</time>
      </trkpt>
      <trkpt lat="45.48515" lon="6.41574">
        <ele>1603</ele>
        <time>2022-08-05T09:40:30Z</time>
      </trkpt>
      <trkpt lat="45.48512" lon="6.41569">
        <ele>1604</ele>
        <time>2022-08-05T09:40:35Z</time>
      </trkpt>
      <trkpt lat="45.48497" lon="6.4156">
        <ele>1606</ele>
        <time>2022-08-05T09:40:48Z</time>
      </trkpt>
      <trkpt lat="45.48492" lon="6.4156">
        <ele>1607</ele>
        <time>2022-08-05T09:40:52Z</time>
      </trkpt>
      <trkpt lat="45.48486" lon="6.41556">
        <ele>1607</ele>
        <time>2022-08-05T09:40:57Z</time>
      </trkpt>
      <trkpt lat="45.48478" lon="6.41557">
        <ele>1608</ele>
        <time>2022-08-05T09:41:06Z</time>
      </trkpt>
      <trkpt lat="45.48472" lon="6.41555">
        <ele>1609</ele>
        <time>2022-08-05T09:41:10Z</time>
      </trkpt>
      <trkpt lat="45.48468" lon="6.41554">
        <ele>1608</ele>
        <time>2022-08-05T09:41:14Z</time>
      </trkpt>
      <trkpt lat="45.48462" lon="6.41554">
        <ele>1609</ele>
        <time>2022-08-05T09:41:19Z</time>
      </trkpt>
      <trkpt lat="45.48452" lon="6.41551">
        <ele>1610</ele>
        <time>2022-08-05T09:41:28Z</time>
      </trkpt>
      <trkpt lat="45.48447" lon="6.41551">
        <ele>1610</ele>
        <time>2022-08-05T09:41:32Z</time>
      </trkpt>
      <trkpt lat="45.48442" lon="6.41553">
        <ele>1611</ele>
        <time>2022-08-05T09:41:36Z</time>
      </trkpt>
      <trkpt lat="45.48437" lon="6.41552">
        <ele>1613</ele>
        <time>2022-08-05T09:41:48Z</time>
      </trkpt>
      <trkpt lat="45.48431" lon="6.41551">
        <ele>1614</ele>
        <time>2022-08-05T09:41:52Z</time>
      </trkpt>
      <trkpt lat="45.48425" lon="6.41551">
        <ele>1614</ele>
        <time>2022-08-05T09:41:56Z</time>
      </trkpt>
      <trkpt lat="45.48419" lon="6.41551">
        <ele>1616</ele>
        <time>2022-08-05T09:42:06Z</time>
      </trkpt>
      <trkpt lat="45.48414" lon="6.4155">
        <ele>1617</ele>
        <time>2022-08-05T09:42:11Z</time>
      </trkpt>
      <trkpt lat="45.4841" lon="6.41544">
        <ele>1618</ele>
        <time>2022-08-05T09:42:18Z</time>
      </trkpt>
      <trkpt lat="45.48401" lon="6.41537">
        <ele>1618</ele>
        <time>2022-08-05T09:42:26Z</time>
      </trkpt>
      <trkpt lat="45.48396" lon="6.41528">
        <ele>1618</ele>
        <time>2022-08-05T09:42:33Z</time>
      </trkpt>
      <trkpt lat="45.48393" lon="6.41517">
        <ele>1620</ele>
        <time>2022-08-05T09:42:45Z</time>
      </trkpt>
      <trkpt lat="45.48418" lon="6.41532">
        <ele>1626</ele>
        <time>2022-08-05T09:43:21Z</time>
      </trkpt>
      <trkpt lat="45.4843" lon="6.4153">
        <ele>1627</ele>
        <time>2022-08-05T09:43:32Z</time>
      </trkpt>
      <trkpt lat="45.48436" lon="6.41525">
        <ele>1628</ele>
        <time>2022-08-05T09:43:40Z</time>
      </trkpt>
      <trkpt lat="45.4845" lon="6.4152">
        <ele>1631</ele>
        <time>2022-08-05T09:43:56Z</time>
      </trkpt>
      <trkpt lat="45.48454" lon="6.41516">
        <ele>1631</ele>
        <time>2022-08-05T09:44:00Z</time>
      </trkpt>
      <trkpt lat="45.48479" lon="6.41517">
        <ele>1634</ele>
        <time>2022-08-05T09:44:24Z</time>
      </trkpt>
      <trkpt lat="45.48465" lon="6.41497">
        <ele>1640</ele>
        <time>2022-08-05T09:44:54Z</time>
      </trkpt>
      <trkpt lat="45.48458" lon="6.41495">
        <ele>1641</ele>
        <time>2022-08-05T09:45:03Z</time>
      </trkpt>
      <trkpt lat="45.48454" lon="6.41492">
        <ele>1642</ele>
        <time>2022-08-05T09:45:08Z</time>
      </trkpt>
      <trkpt lat="45.48434" lon="6.41488">
        <ele>1648</ele>
        <time>2022-08-05T09:45:38Z</time>
      </trkpt>
      <trkpt lat="45.4842" lon="6.41478">
        <ele>1650</ele>
        <time>2022-08-05T09:45:56Z</time>
      </trkpt>
      <trkpt lat="45.48417" lon="6.41472">
        <ele>1650</ele>
        <time>2022-08-05T09:46:00Z</time>
      </trkpt>
      <trkpt lat="45.48418" lon="6.41475">
        <ele>1653</ele>
        <time>2022-08-05T09:46:24Z</time>
      </trkpt>
      <trkpt lat="45.48423" lon="6.41476">
        <ele>1654</ele>
        <time>2022-08-05T09:46:29Z</time>
      </trkpt>
      <trkpt lat="45.48441" lon="6.41478">
        <ele>1657</ele>
        <time>2022-08-05T09:46:48Z</time>
      </trkpt>
      <trkpt lat="45.48445" lon="6.41479">
        <ele>1657</ele>
        <time>2022-08-05T09:46:52Z</time>
      </trkpt>
      <trkpt lat="45.4845" lon="6.41478">
        <ele>1657</ele>
        <time>2022-08-05T09:46:56Z</time>
      </trkpt>
      <trkpt lat="45.48454" lon="6.41479">
        <ele>1657</ele>
        <time>2022-08-05T09:47:00Z</time>
      </trkpt>
      <trkpt lat="45.48458" lon="6.41476">
        <ele>1658</ele>
        <time>2022-08-05T09:47:05Z</time>
      </trkpt>
      <trkpt lat="45.48466" lon="6.41477">
        <ele>1659</ele>
        <time>2022-08-05T09:47:13Z</time>
      </trkpt>
      <trkpt lat="45.48471" lon="6.41475">
        <ele>1661</ele>
        <time>2022-08-05T09:47:20Z</time>
      </trkpt>
      <trkpt lat="45.48496" lon="6.41476">
        <ele>1666</ele>
        <time>2022-08-05T09:47:50Z</time>
      </trkpt>
      <trkpt lat="45.48499" lon="6.41472">
        <ele>1668</ele>
        <time>2022-08-05T09:48:02Z</time>
      </trkpt>
      <trkpt lat="45.48491" lon="6.41466">
        <ele>1670</ele>
        <time>2022-08-05T09:48:11Z</time>
      </trkpt>
      <trkpt lat="45.48483" lon="6.41461">
        <ele>1671</ele>
        <time>2022-08-05T09:48:18Z</time>
      </trkpt>
      <trkpt lat="45.48479" lon="6.41457">
        <ele>1671</ele>
        <time>2022-08-05T09:48:21Z</time>
      </trkpt>
      <trkpt lat="45.4846" lon="6.41452">
        <ele>1672</ele>
        <time>2022-08-05T09:48:36Z</time>
      </trkpt>
      <trkpt lat="45.48455" lon="6.41452">
        <ele>1672</ele>
        <time>2022-08-05T09:48:41Z</time>
      </trkpt>
      <trkpt lat="45.4845" lon="6.41453">
        <ele>1671</ele>
        <time>2022-08-05T09:48:45Z</time>
      </trkpt>
      <trkpt lat="45.48441" lon="6.41449">
        <ele>1672</ele>
        <time>2022-08-05T09:48:53Z</time>
      </trkpt>
      <trkpt lat="45.48434" lon="6.41445">
        <ele>1673</ele>
        <time>2022-08-05T09:49:02Z</time>
      </trkpt>
      <trkpt lat="45.48432" lon="6.41439">
        <ele>1673</ele>
        <time>2022-08-05T09:49:05Z</time>
      </trkpt>
      <trkpt lat="45.48419" lon="6.41417">
        <ele>1675</ele>
        <time>2022-08-05T09:49:26Z</time>
      </trkpt>
      <trkpt lat="45.48407" lon="6.41388">
        <ele>1679</ele>
        <time>2022-08-05T09:49:49Z</time>
      </trkpt>
      <trkpt lat="45.48398" lon="6.41377">
        <ele>1682</ele>
        <time>2022-08-05T09:50:06Z</time>
      </trkpt>
      <trkpt lat="45.48367" lon="6.41364">
        <ele>1689</ele>
        <time>2022-08-05T09:50:41Z</time>
      </trkpt>
      <trkpt lat="45.48361" lon="6.41365">
        <ele>1690</ele>
        <time>2022-08-05T09:50:48Z</time>
      </trkpt>
      <trkpt lat="45.48363" lon="6.41362">
        <ele>1693</ele>
        <time>2022-08-05T09:51:05Z</time>
      </trkpt>
      <trkpt lat="45.48372" lon="6.4136">
        <ele>1694</ele>
        <time>2022-08-05T09:51:15Z</time>
      </trkpt>
      <trkpt lat="45.48376" lon="6.41361">
        <ele>1695</ele>
        <time>2022-08-05T09:51:19Z</time>
      </trkpt>
      <trkpt lat="45.48381" lon="6.4136">
        <ele>1695</ele>
        <time>2022-08-05T09:51:23Z</time>
      </trkpt>
      <trkpt lat="45.48386" lon="6.41361">
        <ele>1696</ele>
        <time>2022-08-05T09:51:27Z</time>
      </trkpt>
      <trkpt lat="45.48394" lon="6.41354">
        <ele>1697</ele>
        <time>2022-08-05T09:51:37Z</time>
      </trkpt>
      <trkpt lat="45.48415" lon="6.4136">
        <ele>1701</ele>
        <time>2022-08-05T09:52:01Z</time>
      </trkpt>
      <trkpt lat="45.48424" lon="6.41367">
        <ele>1702</ele>
        <time>2022-08-05T09:52:11Z</time>
      </trkpt>
      <trkpt lat="45.48429" lon="6.41374">
        <ele>1703</ele>
        <time>2022-08-05T09:52:18Z</time>
      </trkpt>
      <trkpt lat="45.48432" lon="6.41379">
        <ele>1703</ele>
        <time>2022-08-05T09:52:22Z</time>
      </trkpt>
      <trkpt lat="45.48436" lon="6.41382">
        <ele>1704</ele>
        <time>2022-08-05T09:52:27Z</time>
      </trkpt>
      <trkpt lat="45.48439" lon="6.41386">
        <ele>1704</ele>
        <time>2022-08-05T09:52:30Z</time>
      </trkpt>
      <trkpt lat="45.48445" lon="6.41391">
        <ele>1704</ele>
        <time>2022-08-05T09:52:38Z</time>
      </trkpt>
      <trkpt lat="45.48454" lon="6.41398">
        <ele>1706</ele>
        <time>2022-08-05T09:52:48Z</time>
      </trkpt>
      <trkpt lat="45.48457" lon="6.41401">
        <ele>1707</ele>
        <time>2022-08-05T09:52:52Z</time>
      </trkpt>
      <trkpt lat="45.48474" lon="6.41405">
        <ele>1709</ele>
        <time>2022-08-05T09:53:11Z</time>
      </trkpt>
      <trkpt lat="45.48479" lon="6.41405">
        <ele>1709</ele>
        <time>2022-08-05T09:53:15Z</time>
      </trkpt>
      <trkpt lat="45.48483" lon="6.41406">
        <ele>1709</ele>
        <time>2022-08-05T09:53:20Z</time>
      </trkpt>
      <trkpt lat="45.48487" lon="6.41405">
        <ele>1710</ele>
        <time>2022-08-05T09:53:26Z</time>
      </trkpt>
      <trkpt lat="45.48481" lon="6.41398">
        <ele>1712</ele>
        <time>2022-08-05T09:53:36Z</time>
      </trkpt>
      <trkpt lat="45.4847" lon="6.41392">
        <ele>1714</ele>
        <time>2022-08-05T09:53:49Z</time>
      </trkpt>
      <trkpt lat="45.48459" lon="6.41377">
        <ele>1717</ele>
        <time>2022-08-05T09:54:07Z</time>
      </trkpt>
      <trkpt lat="45.4845" lon="6.41363">
        <ele>1719</ele>
        <time>2022-08-05T09:54:22Z</time>
      </trkpt>
      <trkpt lat="45.4845" lon="6.41356">
        <ele>1719</ele>
        <time>2022-08-05T09:54:26Z</time>
      </trkpt>
      <trkpt lat="45.48448" lon="6.41351">
        <ele>1719</ele>
        <time>2022-08-05T09:54:30Z</time>
      </trkpt>
      <trkpt lat="45.48437" lon="6.41333">
        <ele>1721</ele>
        <time>2022-08-05T09:54:46Z</time>
      </trkpt>
      <trkpt lat="45.48433" lon="6.41328">
        <ele>1723</ele>
        <time>2022-08-05T09:54:54Z</time>
      </trkpt>
      <trkpt lat="45.48428" lon="6.41326">
        <ele>1723</ele>
        <time>2022-08-05T09:54:58Z</time>
      </trkpt>
      <trkpt lat="45.48425" lon="6.41321">
        <ele>1723</ele>
        <time>2022-08-05T09:55:01Z</time>
      </trkpt>
      <trkpt lat="45.48415" lon="6.41308">
        <ele>1724</ele>
        <time>2022-08-05T09:55:16Z</time>
      </trkpt>
      <trkpt lat="45.48412" lon="6.41303">
        <ele>1725</ele>
        <time>2022-08-05T09:55:20Z</time>
      </trkpt>
      <trkpt lat="45.48406" lon="6.41301">
        <ele>1725</ele>
        <time>2022-08-05T09:55:24Z</time>
      </trkpt>
      <trkpt lat="45.48403" lon="6.41296">
        <ele>1726</ele>
        <time>2022-08-05T09:55:29Z</time>
      </trkpt>
      <trkpt lat="45.48398" lon="6.41295">
        <ele>1726</ele>
        <time>2022-08-05T09:55:32Z</time>
      </trkpt>
      <trkpt lat="45.48392" lon="6.41296">
        <ele>1726</ele>
        <time>2022-08-05T09:55:36Z</time>
      </trkpt>
      <trkpt lat="45.48378" lon="6.41296">
        <ele>1727</ele>
        <time>2022-08-05T09:55:50Z</time>
      </trkpt>
      <trkpt lat="45.48374" lon="6.41294">
        <ele>1728</ele>
        <time>2022-08-05T09:55:53Z</time>
      </trkpt>
      <trkpt lat="45.48371" lon="6.41287">
        <ele>1728</ele>
        <time>2022-08-05T09:56:01Z</time>
      </trkpt>
      <trkpt lat="45.48371" lon="6.4128">
        <ele>1728</ele>
        <time>2022-08-05T09:56:05Z</time>
      </trkpt>
      <trkpt lat="45.48368" lon="6.41275">
        <ele>1729</ele>
        <time>2022-08-05T09:56:10Z</time>
      </trkpt>
      <trkpt lat="45.48352" lon="6.4126">
        <ele>1732</ele>
        <time>2022-08-05T09:56:29Z</time>
      </trkpt>
      <trkpt lat="45.48334" lon="6.41256">
        <ele>1735</ele>
        <time>2022-08-05T09:56:49Z</time>
      </trkpt>
      <trkpt lat="45.48329" lon="6.41253">
        <ele>1735</ele>
        <time>2022-08-05T09:56:54Z</time>
      </trkpt>
      <trkpt lat="45.48321" lon="6.4124">
        <ele>1740</ele>
        <time>2022-08-05T09:57:15Z</time>
      </trkpt>
      <trkpt lat="45.48321" lon="6.41231">
        <ele>1742</ele>
        <time>2022-08-05T09:57:26Z</time>
      </trkpt>
      <trkpt lat="45.48315" lon="6.41221">
        <ele>1743</ele>
        <time>2022-08-05T09:57:34Z</time>
      </trkpt>
      <trkpt lat="45.48309" lon="6.41203">
        <ele>1745</ele>
        <time>2022-08-05T09:57:49Z</time>
      </trkpt>
      <trkpt lat="45.48308" lon="6.41193">
        <ele>1746</ele>
        <time>2022-08-05T09:57:57Z</time>
      </trkpt>
      <trkpt lat="45.48313" lon="6.41197">
        <ele>1748</ele>
        <time>2022-08-05T09:58:11Z</time>
      </trkpt>
      <trkpt lat="45.48318" lon="6.41207">
        <ele>1748</ele>
        <time>2022-08-05T09:58:19Z</time>
      </trkpt>
      <trkpt lat="45.48323" lon="6.41209">
        <ele>1748</ele>
        <time>2022-08-05T09:58:23Z</time>
      </trkpt>
      <trkpt lat="45.4833" lon="6.41207">
        <ele>1748</ele>
        <time>2022-08-05T09:58:32Z</time>
      </trkpt>
      <trkpt lat="45.48342" lon="6.41224">
        <ele>1752</ele>
        <time>2022-08-05T09:58:52Z</time>
      </trkpt>
      <trkpt lat="45.48345" lon="6.41228">
        <ele>1752</ele>
        <time>2022-08-05T09:58:57Z</time>
      </trkpt>
      <trkpt lat="45.4835" lon="6.41233">
        <ele>1753</ele>
        <time>2022-08-05T09:59:03Z</time>
      </trkpt>
      <trkpt lat="45.48355" lon="6.4122">
        <ele>1755</ele>
        <time>2022-08-05T09:59:19Z</time>
      </trkpt>
      <trkpt lat="45.4836" lon="6.41226">
        <ele>1759</ele>
        <time>2022-08-05T09:59:40Z</time>
      </trkpt>
      <trkpt lat="45.48371" lon="6.41229">
        <ele>1762</ele>
        <time>2022-08-05T09:59:56Z</time>
      </trkpt>
      <trkpt lat="45.48372" lon="6.41222">
        <ele>1763</ele>
        <time>2022-08-05T10:00:01Z</time>
      </trkpt>
      <trkpt lat="45.48372" lon="6.41213">
        <ele>1765</ele>
        <time>2022-08-05T10:00:13Z</time>
      </trkpt>
      <trkpt lat="45.48373" lon="6.41207">
        <ele>1767</ele>
        <time>2022-08-05T10:00:23Z</time>
      </trkpt>
      <trkpt lat="45.4838" lon="6.41209">
        <ele>1769</ele>
        <time>2022-08-05T10:00:34Z</time>
      </trkpt>
      <trkpt lat="45.48387" lon="6.41209">
        <ele>1770</ele>
        <time>2022-08-05T10:00:44Z</time>
      </trkpt>
      <trkpt lat="45.48387" lon="6.41199">
        <ele>1772</ele>
        <time>2022-08-05T10:00:54Z</time>
      </trkpt>
      <trkpt lat="45.48392" lon="6.41196">
        <ele>1775</ele>
        <time>2022-08-05T10:01:06Z</time>
      </trkpt>
      <trkpt lat="45.48397" lon="6.41197">
        <ele>1777</ele>
        <time>2022-08-05T10:01:17Z</time>
      </trkpt>
      <trkpt lat="45.484" lon="6.4119">
        <ele>1778</ele>
        <time>2022-08-05T10:01:27Z</time>
      </trkpt>
      <trkpt lat="45.48397" lon="6.41168">
        <ele>1781</ele>
        <time>2022-08-05T10:01:48Z</time>
      </trkpt>
      <trkpt lat="45.48401" lon="6.41174">
        <ele>1784</ele>
        <time>2022-08-05T10:02:03Z</time>
      </trkpt>
      <trkpt lat="45.48408" lon="6.41174">
        <ele>1785</ele>
        <time>2022-08-05T10:02:13Z</time>
      </trkpt>
      <trkpt lat="45.48414" lon="6.41174">
        <ele>1787</ele>
        <time>2022-08-05T10:02:24Z</time>
      </trkpt>
      <trkpt lat="45.48422" lon="6.41178">
        <ele>1789</ele>
        <time>2022-08-05T10:02:34Z</time>
      </trkpt>
      <trkpt lat="45.48427" lon="6.41181">
        <ele>1790</ele>
        <time>2022-08-05T10:02:44Z</time>
      </trkpt>
      <trkpt lat="45.48454" lon="6.41193">
        <ele>1796</ele>
        <time>2022-08-05T10:03:20Z</time>
      </trkpt>
      <trkpt lat="45.4846" lon="6.41196">
        <ele>1796</ele>
        <time>2022-08-05T10:03:28Z</time>
      </trkpt>
      <trkpt lat="45.48462" lon="6.41201">
        <ele>1797</ele>
        <time>2022-08-05T10:03:33Z</time>
      </trkpt>
      <trkpt lat="45.48466" lon="6.41205">
        <ele>1797</ele>
        <time>2022-08-05T10:03:38Z</time>
      </trkpt>
      <trkpt lat="45.4847" lon="6.41207">
        <ele>1798</ele>
        <time>2022-08-05T10:03:45Z</time>
      </trkpt>
      <trkpt lat="45.48475" lon="6.41208">
        <ele>1798</ele>
        <time>2022-08-05T10:03:50Z</time>
      </trkpt>
      <trkpt lat="45.48492" lon="6.41221">
        <ele>1800</ele>
        <time>2022-08-05T10:04:10Z</time>
      </trkpt>
      <trkpt lat="45.48512" lon="6.41248">
        <ele>1803</ele>
        <time>2022-08-05T10:04:41Z</time>
      </trkpt>
      <trkpt lat="45.48517" lon="6.41251">
        <ele>1804</ele>
        <time>2022-08-05T10:04:48Z</time>
      </trkpt>
      <trkpt lat="45.4852" lon="6.41257">
        <ele>1805</ele>
        <time>2022-08-05T10:04:53Z</time>
      </trkpt>
      <trkpt lat="45.48525" lon="6.41261">
        <ele>1806</ele>
        <time>2022-08-05T10:05:00Z</time>
      </trkpt>
      <trkpt lat="45.48539" lon="6.41262">
        <ele>1808</ele>
        <time>2022-08-05T10:05:15Z</time>
      </trkpt>
      <trkpt lat="45.48538" lon="6.41253">
        <ele>1810</ele>
        <time>2022-08-05T10:05:22Z</time>
      </trkpt>
      <trkpt lat="45.48537" lon="6.41244">
        <ele>1811</ele>
        <time>2022-08-05T10:05:29Z</time>
      </trkpt>
      <trkpt lat="45.48536" lon="6.41238">
        <ele>1812</ele>
        <time>2022-08-05T10:05:36Z</time>
      </trkpt>
      <trkpt lat="45.4854" lon="6.41225">
        <ele>1815</ele>
        <time>2022-08-05T10:05:52Z</time>
      </trkpt>
      <trkpt lat="45.48544" lon="6.41227">
        <ele>1818</ele>
        <time>2022-08-05T10:06:26Z</time>
      </trkpt>
      <trkpt lat="45.48549" lon="6.41229">
        <ele>1819</ele>
        <time>2022-08-05T10:06:34Z</time>
      </trkpt>
      <trkpt lat="45.4855" lon="6.4122">
        <ele>1819</ele>
        <time>2022-08-05T10:06:44Z</time>
      </trkpt>
      <trkpt lat="45.48546" lon="6.41207">
        <ele>1820</ele>
        <time>2022-08-05T10:06:56Z</time>
      </trkpt>
      <trkpt lat="45.48543" lon="6.41191">
        <ele>1822</ele>
        <time>2022-08-05T10:07:13Z</time>
      </trkpt>
      <trkpt lat="45.4854" lon="6.41185">
        <ele>1823</ele>
        <time>2022-08-05T10:07:17Z</time>
      </trkpt>
      <trkpt lat="45.48546" lon="6.41187">
        <ele>1824</ele>
        <time>2022-08-05T10:07:30Z</time>
      </trkpt>
      <trkpt lat="45.4855" lon="6.41184">
        <ele>1826</ele>
        <time>2022-08-05T10:07:41Z</time>
      </trkpt>
      <trkpt lat="45.48543" lon="6.41163">
        <ele>1828</ele>
        <time>2022-08-05T10:08:05Z</time>
      </trkpt>
      <trkpt lat="45.48535" lon="6.4113">
        <ele>1832</ele>
        <time>2022-08-05T10:08:35Z</time>
      </trkpt>
      <trkpt lat="45.48541" lon="6.41133">
        <ele>1834</ele>
        <time>2022-08-05T10:08:52Z</time>
      </trkpt>
      <trkpt lat="45.48548" lon="6.41138">
        <ele>1836</ele>
        <time>2022-08-05T10:09:02Z</time>
      </trkpt>
      <trkpt lat="45.4855" lon="6.41133">
        <ele>1837</ele>
        <time>2022-08-05T10:09:12Z</time>
      </trkpt>
      <trkpt lat="45.48544" lon="6.41123">
        <ele>1837</ele>
        <time>2022-08-05T10:09:22Z</time>
      </trkpt>
      <trkpt lat="45.48533" lon="6.41099">
        <ele>1836</ele>
        <time>2022-08-05T10:09:39Z</time>
      </trkpt>
      <trkpt lat="45.48535" lon="6.41108">
        <ele>1836</ele>
        <time>2022-08-05T10:10:02Z</time>
      </trkpt>
      <trkpt lat="45.4856" lon="6.41151">
        <ele>1839</ele>
        <time>2022-08-05T10:10:35Z</time>
      </trkpt>
      <trkpt lat="45.48571" lon="6.41166">
        <ele>1840</ele>
        <time>2022-08-05T10:10:47Z</time>
      </trkpt>
      <trkpt lat="45.48593" lon="6.41192">
        <ele>1843</ele>
        <time>2022-08-05T10:11:11Z</time>
      </trkpt>
      <trkpt lat="45.48607" lon="6.41211">
        <ele>1845</ele>
        <time>2022-08-05T10:11:27Z</time>
      </trkpt>
      <trkpt lat="45.48615" lon="6.41217">
        <ele>1845</ele>
        <time>2022-08-05T10:11:34Z</time>
      </trkpt>
      <trkpt lat="45.48621" lon="6.41217">
        <ele>1845</ele>
        <time>2022-08-05T10:11:38Z</time>
      </trkpt>
      <trkpt lat="45.4864" lon="6.41209">
        <ele>1846</ele>
        <time>2022-08-05T10:11:54Z</time>
      </trkpt>
      <trkpt lat="45.48644" lon="6.41209">
        <ele>1847</ele>
        <time>2022-08-05T10:11:58Z</time>
      </trkpt>
      <trkpt lat="45.48683" lon="6.41227">
        <ele>1849</ele>
        <time>2022-08-05T10:12:31Z</time>
      </trkpt>
      <trkpt lat="45.48719" lon="6.41244">
        <ele>1850</ele>
        <time>2022-08-05T10:13:00Z</time>
      </trkpt>
      <trkpt lat="45.48723" lon="6.41247">
        <ele>1850</ele>
        <time>2022-08-05T10:13:04Z</time>
      </trkpt>
      <trkpt lat="45.48727" lon="6.41249">
        <ele>1850</ele>
        <time>2022-08-05T10:13:07Z</time>
      </trkpt>
      <trkpt lat="45.48732" lon="6.41253">
        <ele>1851</ele>
        <time>2022-08-05T10:13:11Z</time>
      </trkpt>
      <trkpt lat="45.48742" lon="6.41258">
        <ele>1852</ele>
        <time>2022-08-05T10:13:20Z</time>
      </trkpt>
      <trkpt lat="45.48753" lon="6.41258">
        <ele>1853</ele>
        <time>2022-08-05T10:13:28Z</time>
      </trkpt>
      <trkpt lat="45.48758" lon="6.41255">
        <ele>1853</ele>
        <time>2022-08-05T10:13:32Z</time>
      </trkpt>
      <trkpt lat="45.48761" lon="6.41252">
        <ele>1853</ele>
        <time>2022-08-05T10:13:36Z</time>
      </trkpt>
      <trkpt lat="45.48762" lon="6.41245">
        <ele>1854</ele>
        <time>2022-08-05T10:13:41Z</time>
      </trkpt>
      <trkpt lat="45.48758" lon="6.4124">
        <ele>1854</ele>
        <time>2022-08-05T10:13:45Z</time>
      </trkpt>
      <trkpt lat="45.48743" lon="6.41238">
        <ele>1857</ele>
        <time>2022-08-05T10:13:57Z</time>
      </trkpt>
      <trkpt lat="45.48709" lon="6.4121">
        <ele>1860</ele>
        <time>2022-08-05T10:14:29Z</time>
      </trkpt>
      <trkpt lat="45.4868" lon="6.41187">
        <ele>1862</ele>
        <time>2022-08-05T10:14:56Z</time>
      </trkpt>
      <trkpt lat="45.48655" lon="6.41152">
        <ele>1866</ele>
        <time>2022-08-05T10:15:29Z</time>
      </trkpt>
      <trkpt lat="45.48638" lon="6.41131">
        <ele>1869</ele>
        <time>2022-08-05T10:15:50Z</time>
      </trkpt>
      <trkpt lat="45.48626" lon="6.41108">
        <ele>1871</ele>
        <time>2022-08-05T10:16:09Z</time>
      </trkpt>
      <trkpt lat="45.48624" lon="6.411">
        <ele>1872</ele>
        <time>2022-08-05T10:16:15Z</time>
      </trkpt>
      <trkpt lat="45.48629" lon="6.41098">
        <ele>1873</ele>
        <time>2022-08-05T10:16:21Z</time>
      </trkpt>
      <trkpt lat="45.48652" lon="6.41122">
        <ele>1876</ele>
        <time>2022-08-05T10:16:49Z</time>
      </trkpt>
      <trkpt lat="45.48683" lon="6.41147">
        <ele>1882</ele>
        <time>2022-08-05T10:17:22Z</time>
      </trkpt>
      <trkpt lat="45.48699" lon="6.41159">
        <ele>1883</ele>
        <time>2022-08-05T10:17:38Z</time>
      </trkpt>
      <trkpt lat="45.48723" lon="6.41163">
        <ele>1886</ele>
        <time>2022-08-05T10:17:59Z</time>
      </trkpt>
      <trkpt lat="45.48759" lon="6.41161">
        <ele>1890</ele>
        <time>2022-08-05T10:18:31Z</time>
      </trkpt>
      <trkpt lat="45.48796" lon="6.41151">
        <ele>1894</ele>
        <time>2022-08-05T10:19:04Z</time>
      </trkpt>
      <trkpt lat="45.48813" lon="6.4115">
        <ele>1896</ele>
        <time>2022-08-05T10:19:20Z</time>
      </trkpt>
      <trkpt lat="45.48817" lon="6.41144">
        <ele>1896</ele>
        <time>2022-08-05T10:19:24Z</time>
      </trkpt>
      <trkpt lat="45.48818" lon="6.41138">
        <ele>1897</ele>
        <time>2022-08-05T10:19:28Z</time>
      </trkpt>
      <trkpt lat="45.48816" lon="6.41132">
        <ele>1897</ele>
        <time>2022-08-05T10:19:32Z</time>
      </trkpt>
      <trkpt lat="45.48806" lon="6.41126">
        <ele>1899</ele>
        <time>2022-08-05T10:19:41Z</time>
      </trkpt>
      <trkpt lat="45.48792" lon="6.41126">
        <ele>1900</ele>
        <time>2022-08-05T10:19:53Z</time>
      </trkpt>
      <trkpt lat="45.48787" lon="6.41124">
        <ele>1901</ele>
        <time>2022-08-05T10:19:57Z</time>
      </trkpt>
      <trkpt lat="45.48775" lon="6.41117">
        <ele>1902</ele>
        <time>2022-08-05T10:20:09Z</time>
      </trkpt>
      <trkpt lat="45.48753" lon="6.41105">
        <ele>1904</ele>
        <time>2022-08-05T10:20:30Z</time>
      </trkpt>
      <trkpt lat="45.48735" lon="6.41102">
        <ele>1907</ele>
        <time>2022-08-05T10:20:46Z</time>
      </trkpt>
      <trkpt lat="45.48729" lon="6.41099">
        <ele>1908</ele>
        <time>2022-08-05T10:20:52Z</time>
      </trkpt>
      <trkpt lat="45.48725" lon="6.41095">
        <ele>1908</ele>
        <time>2022-08-05T10:20:56Z</time>
      </trkpt>
      <trkpt lat="45.48716" lon="6.41079">
        <ele>1909</ele>
        <time>2022-08-05T10:21:08Z</time>
      </trkpt>
      <trkpt lat="45.48711" lon="6.41067">
        <ele>1910</ele>
        <time>2022-08-05T10:21:16Z</time>
      </trkpt>
      <trkpt lat="45.48705" lon="6.41058">
        <ele>1911</ele>
        <time>2022-08-05T10:21:24Z</time>
      </trkpt>
      <trkpt lat="45.48698" lon="6.4105">
        <ele>1911</ele>
        <time>2022-08-05T10:21:32Z</time>
      </trkpt>
      <trkpt lat="45.48689" lon="6.41045">
        <ele>1913</ele>
        <time>2022-08-05T10:21:40Z</time>
      </trkpt>
      <trkpt lat="45.48686" lon="6.41041">
        <ele>1913</ele>
        <time>2022-08-05T10:21:44Z</time>
      </trkpt>
      <trkpt lat="45.48675" lon="6.41021">
        <ele>1914</ele>
        <time>2022-08-05T10:22:00Z</time>
      </trkpt>
      <trkpt lat="45.48669" lon="6.4101">
        <ele>1916</ele>
        <time>2022-08-05T10:22:09Z</time>
      </trkpt>
      <trkpt lat="45.48667" lon="6.41005">
        <ele>1916</ele>
        <time>2022-08-05T10:22:13Z</time>
      </trkpt>
      <trkpt lat="45.48664" lon="6.40998">
        <ele>1916</ele>
        <time>2022-08-05T10:22:18Z</time>
      </trkpt>
      <trkpt lat="45.48659" lon="6.4098">
        <ele>1918</ele>
        <time>2022-08-05T10:22:30Z</time>
      </trkpt>
      <trkpt lat="45.48658" lon="6.40961">
        <ele>1920</ele>
        <time>2022-08-05T10:22:42Z</time>
      </trkpt>
      <trkpt lat="45.48661" lon="6.40923">
        <ele>1922</ele>
        <time>2022-08-05T10:23:06Z</time>
      </trkpt>
      <trkpt lat="45.48666" lon="6.40904">
        <ele>1923</ele>
        <time>2022-08-05T10:23:18Z</time>
      </trkpt>
      <trkpt lat="45.48671" lon="6.40894">
        <ele>1924</ele>
        <time>2022-08-05T10:23:26Z</time>
      </trkpt>
      <trkpt lat="45.48675" lon="6.4089">
        <ele>1924</ele>
        <time>2022-08-05T10:23:30Z</time>
      </trkpt>
      <trkpt lat="45.48689" lon="6.40884">
        <ele>1925</ele>
        <time>2022-08-05T10:23:42Z</time>
      </trkpt>
      <trkpt lat="45.48697" lon="6.40884">
        <ele>1927</ele>
        <time>2022-08-05T10:23:50Z</time>
      </trkpt>
      <trkpt lat="45.48702" lon="6.40882">
        <ele>1927</ele>
        <time>2022-08-05T10:23:54Z</time>
      </trkpt>
      <trkpt lat="45.48706" lon="6.40879">
        <ele>1927</ele>
        <time>2022-08-05T10:23:58Z</time>
      </trkpt>
      <trkpt lat="45.48712" lon="6.4087">
        <ele>1928</ele>
        <time>2022-08-05T10:24:06Z</time>
      </trkpt>
      <trkpt lat="45.48714" lon="6.40864">
        <ele>1929</ele>
        <time>2022-08-05T10:24:10Z</time>
      </trkpt>
      <trkpt lat="45.48717" lon="6.4083">
        <ele>1931</ele>
        <time>2022-08-05T10:24:31Z</time>
      </trkpt>
      <trkpt lat="45.48723" lon="6.40812">
        <ele>1932</ele>
        <time>2022-08-05T10:24:43Z</time>
      </trkpt>
      <trkpt lat="45.48726" lon="6.40808">
        <ele>1932</ele>
        <time>2022-08-05T10:24:47Z</time>
      </trkpt>
      <trkpt lat="45.48731" lon="6.40808">
        <ele>1933</ele>
        <time>2022-08-05T10:24:52Z</time>
      </trkpt>
      <trkpt lat="45.48732" lon="6.40814">
        <ele>1933</ele>
        <time>2022-08-05T10:24:57Z</time>
      </trkpt>
      <trkpt lat="45.48731" lon="6.40841">
        <ele>1935</ele>
        <time>2022-08-05T10:25:14Z</time>
      </trkpt>
      <trkpt lat="45.48735" lon="6.40892">
        <ele>1938</ele>
        <time>2022-08-05T10:25:46Z</time>
      </trkpt>
      <trkpt lat="45.48738" lon="6.40905">
        <ele>1939</ele>
        <time>2022-08-05T10:25:54Z</time>
      </trkpt>
      <trkpt lat="45.48747" lon="6.40945">
        <ele>1941</ele>
        <time>2022-08-05T10:26:18Z</time>
      </trkpt>
      <trkpt lat="45.4875" lon="6.40966">
        <ele>1941</ele>
        <time>2022-08-05T10:26:30Z</time>
      </trkpt>
      <trkpt lat="45.48752" lon="6.40972">
        <ele>1941</ele>
        <time>2022-08-05T10:26:34Z</time>
      </trkpt>
      <trkpt lat="45.48762" lon="6.40985">
        <ele>1942</ele>
        <time>2022-08-05T10:26:46Z</time>
      </trkpt>
      <trkpt lat="45.48775" lon="6.40995">
        <ele>1943</ele>
        <time>2022-08-05T10:26:58Z</time>
      </trkpt>
      <trkpt lat="45.48808" lon="6.41005">
        <ele>1945</ele>
        <time>2022-08-05T10:27:26Z</time>
      </trkpt>
      <trkpt lat="45.48842" lon="6.41006">
        <ele>1947</ele>
        <time>2022-08-05T10:27:54Z</time>
      </trkpt>
      <trkpt lat="45.48833" lon="6.41001">
        <ele>1947</ele>
        <time>2022-08-05T10:28:04Z</time>
      </trkpt>
      <trkpt lat="45.48833" lon="6.41002">
        <ele>1947</ele>
        <time>2022-08-05T10:28:50Z</time>
      </trkpt>
      <trkpt lat="45.48838" lon="6.41004">
        <ele>1947</ele>
        <time>2022-08-05T10:28:54Z</time>
      </trkpt>
      <trkpt lat="45.48869" lon="6.4101">
        <ele>1948</ele>
        <time>2022-08-05T10:29:18Z</time>
      </trkpt>
      <trkpt lat="45.48873" lon="6.41012">
        <ele>1948</ele>
        <time>2022-08-05T10:29:21Z</time>
      </trkpt>
      <trkpt lat="45.48883" lon="6.41011">
        <ele>1948</ele>
        <time>2022-08-05T10:29:29Z</time>
      </trkpt>
      <trkpt lat="45.48888" lon="6.4101">
        <ele>1949</ele>
        <time>2022-08-05T10:29:33Z</time>
      </trkpt>
      <trkpt lat="45.48896" lon="6.41002">
        <ele>1949</ele>
        <time>2022-08-05T10:29:41Z</time>
      </trkpt>
      <trkpt lat="45.48912" lon="6.4097">
        <ele>1949</ele>
        <time>2022-08-05T10:30:06Z</time>
      </trkpt>
      <trkpt lat="45.4892" lon="6.40961">
        <ele>1949</ele>
        <time>2022-08-05T10:30:14Z</time>
      </trkpt>
      <trkpt lat="45.48923" lon="6.40956">
        <ele>1949</ele>
        <time>2022-08-05T10:30:19Z</time>
      </trkpt>
      <trkpt lat="45.48923" lon="6.40949">
        <ele>1949</ele>
        <time>2022-08-05T10:30:24Z</time>
      </trkpt>
      <trkpt lat="45.4892" lon="6.40945">
        <ele>1949</ele>
        <time>2022-08-05T10:30:28Z</time>
      </trkpt>
      <trkpt lat="45.48927" lon="6.40931">
        <ele>1948</ele>
        <time>2022-08-05T10:30:42Z</time>
      </trkpt>
      <trkpt lat="45.48931" lon="6.40928">
        <ele>1947</ele>
        <time>2022-08-05T10:30:46Z</time>
      </trkpt>
      <trkpt lat="45.48935" lon="6.40917">
        <ele>1947</ele>
        <time>2022-08-05T10:30:55Z</time>
      </trkpt>
      <trkpt lat="45.48933" lon="6.40924">
        <ele>1947</ele>
        <time>2022-08-05T10:31:38Z</time>
      </trkpt>
      <trkpt lat="45.48929" lon="6.40932">
        <ele>1947</ele>
        <time>2022-08-05T10:31:47Z</time>
      </trkpt>
      <trkpt lat="45.48924" lon="6.40933">
        <ele>1947</ele>
        <time>2022-08-05T10:31:52Z</time>
      </trkpt>
      <trkpt lat="45.4892" lon="6.40938">
        <ele>1947</ele>
        <time>2022-08-05T10:31:59Z</time>
      </trkpt>
      <trkpt lat="45.48919" lon="6.40945">
        <ele>1948</ele>
        <time>2022-08-05T10:32:04Z</time>
      </trkpt>
      <trkpt lat="45.48923" lon="6.40952">
        <ele>1949</ele>
        <time>2022-08-05T10:32:10Z</time>
      </trkpt>
      <trkpt lat="45.48923" lon="6.40959">
        <ele>1949</ele>
        <time>2022-08-05T10:32:15Z</time>
      </trkpt>
      <trkpt lat="45.4892" lon="6.40964">
        <ele>1948</ele>
        <time>2022-08-05T10:32:19Z</time>
      </trkpt>
      <trkpt lat="45.48916" lon="6.40967">
        <ele>1948</ele>
        <time>2022-08-05T10:32:23Z</time>
      </trkpt>
      <trkpt lat="45.48906" lon="6.40982">
        <ele>1948</ele>
        <time>2022-08-05T10:32:35Z</time>
      </trkpt>
      <trkpt lat="45.48896" lon="6.41004">
        <ele>1948</ele>
        <time>2022-08-05T10:32:51Z</time>
      </trkpt>
      <trkpt lat="45.48892" lon="6.41009">
        <ele>1948</ele>
        <time>2022-08-05T10:32:55Z</time>
      </trkpt>
      <trkpt lat="45.48887" lon="6.41011">
        <ele>1948</ele>
        <time>2022-08-05T10:32:59Z</time>
      </trkpt>
      <trkpt lat="45.48878" lon="6.41012">
        <ele>1948</ele>
        <time>2022-08-05T10:33:07Z</time>
      </trkpt>
      <trkpt lat="45.48867" lon="6.41011">
        <ele>1948</ele>
        <time>2022-08-05T10:33:15Z</time>
      </trkpt>
      <trkpt lat="45.48858" lon="6.41005">
        <ele>1948</ele>
        <time>2022-08-05T10:33:22Z</time>
      </trkpt>
      <trkpt lat="45.48815" lon="6.41002">
        <ele>1947</ele>
        <time>2022-08-05T10:33:56Z</time>
      </trkpt>
      <trkpt lat="45.4881" lon="6.41002">
        <ele>1947</ele>
        <time>2022-08-05T10:34:00Z</time>
      </trkpt>
      <trkpt lat="45.4878" lon="6.40995">
        <ele>1945</ele>
        <time>2022-08-05T10:34:32Z</time>
      </trkpt>
      <trkpt lat="45.48767" lon="6.40988">
        <ele>1945</ele>
        <time>2022-08-05T10:34:45Z</time>
      </trkpt>
      <trkpt lat="45.48763" lon="6.40983">
        <ele>1945</ele>
        <time>2022-08-05T10:34:49Z</time>
      </trkpt>
      <trkpt lat="45.48752" lon="6.40969">
        <ele>1943</ele>
        <time>2022-08-05T10:35:01Z</time>
      </trkpt>
      <trkpt lat="45.4875" lon="6.40963">
        <ele>1944</ele>
        <time>2022-08-05T10:35:05Z</time>
      </trkpt>
      <trkpt lat="45.48748" lon="6.4095">
        <ele>1943</ele>
        <time>2022-08-05T10:35:13Z</time>
      </trkpt>
      <trkpt lat="45.48747" lon="6.40935">
        <ele>1943</ele>
        <time>2022-08-05T10:35:22Z</time>
      </trkpt>
      <trkpt lat="45.48735" lon="6.40888">
        <ele>1942</ele>
        <time>2022-08-05T10:35:48Z</time>
      </trkpt>
      <trkpt lat="45.48732" lon="6.4086">
        <ele>1940</ele>
        <time>2022-08-05T10:36:03Z</time>
      </trkpt>
      <trkpt lat="45.48732" lon="6.40837">
        <ele>1939</ele>
        <time>2022-08-05T10:36:12Z</time>
      </trkpt>
      <trkpt lat="45.48734" lon="6.40815">
        <ele>1937</ele>
        <time>2022-08-05T10:36:20Z</time>
      </trkpt>
      <trkpt lat="45.48731" lon="6.40808">
        <ele>1936</ele>
        <time>2022-08-05T10:36:23Z</time>
      </trkpt>
      <trkpt lat="45.48726" lon="6.4081">
        <ele>1935</ele>
        <time>2022-08-05T10:36:26Z</time>
      </trkpt>
      <trkpt lat="45.48719" lon="6.40829">
        <ele>1933</ele>
        <time>2022-08-05T10:36:33Z</time>
      </trkpt>
      <trkpt lat="45.48713" lon="6.40866">
        <ele>1931</ele>
        <time>2022-08-05T10:36:46Z</time>
      </trkpt>
      <trkpt lat="45.4871" lon="6.40874">
        <ele>1930</ele>
        <time>2022-08-05T10:36:49Z</time>
      </trkpt>
      <trkpt lat="45.48705" lon="6.40882">
        <ele>1929</ele>
        <time>2022-08-05T10:36:53Z</time>
      </trkpt>
      <trkpt lat="45.48701" lon="6.40883">
        <ele>1929</ele>
        <time>2022-08-05T10:36:55Z</time>
      </trkpt>
      <trkpt lat="45.48686" lon="6.40884">
        <ele>1927</ele>
        <time>2022-08-05T10:37:02Z</time>
      </trkpt>
      <trkpt lat="45.4868" lon="6.40887">
        <ele>1926</ele>
        <time>2022-08-05T10:37:05Z</time>
      </trkpt>
      <trkpt lat="45.48676" lon="6.40891">
        <ele>1925</ele>
        <time>2022-08-05T10:37:08Z</time>
      </trkpt>
      <trkpt lat="45.48669" lon="6.40902">
        <ele>1925</ele>
        <time>2022-08-05T10:37:12Z</time>
      </trkpt>
      <trkpt lat="45.48663" lon="6.40924">
        <ele>1924</ele>
        <time>2022-08-05T10:37:20Z</time>
      </trkpt>
      <trkpt lat="45.48659" lon="6.40961">
        <ele>1921</ele>
        <time>2022-08-05T10:37:33Z</time>
      </trkpt>
      <trkpt lat="45.48659" lon="6.40967">
        <ele>1921</ele>
        <time>2022-08-05T10:37:35Z</time>
      </trkpt>
      <trkpt lat="45.48668" lon="6.41007">
        <ele>1918</ele>
        <time>2022-08-05T10:37:50Z</time>
      </trkpt>
      <trkpt lat="45.48689" lon="6.41046">
        <ele>1915</ele>
        <time>2022-08-05T10:38:08Z</time>
      </trkpt>
      <trkpt lat="45.48711" lon="6.41067">
        <ele>1913</ele>
        <time>2022-08-05T10:38:21Z</time>
      </trkpt>
      <trkpt lat="45.48722" lon="6.4109">
        <ele>1911</ele>
        <time>2022-08-05T10:38:30Z</time>
      </trkpt>
      <trkpt lat="45.48731" lon="6.41103">
        <ele>1911</ele>
        <time>2022-08-05T10:38:36Z</time>
      </trkpt>
      <trkpt lat="45.48736" lon="6.41106">
        <ele>1910</ele>
        <time>2022-08-05T10:38:39Z</time>
      </trkpt>
      <trkpt lat="45.48758" lon="6.4111">
        <ele>1907</ele>
        <time>2022-08-05T10:38:50Z</time>
      </trkpt>
      <trkpt lat="45.48791" lon="6.4113">
        <ele>1904</ele>
        <time>2022-08-05T10:39:06Z</time>
      </trkpt>
      <trkpt lat="45.48796" lon="6.4113">
        <ele>1903</ele>
        <time>2022-08-05T10:39:09Z</time>
      </trkpt>
      <trkpt lat="45.48802" lon="6.4113">
        <ele>1902</ele>
        <time>2022-08-05T10:39:22Z</time>
      </trkpt>
      <trkpt lat="45.48807" lon="6.4113">
        <ele>1902</ele>
        <time>2022-08-05T10:39:25Z</time>
      </trkpt>
      <trkpt lat="45.48814" lon="6.41133">
        <ele>1901</ele>
        <time>2022-08-05T10:39:29Z</time>
      </trkpt>
      <trkpt lat="45.48818" lon="6.41139">
        <ele>1901</ele>
        <time>2022-08-05T10:39:32Z</time>
      </trkpt>
      <trkpt lat="45.48816" lon="6.41148">
        <ele>1900</ele>
        <time>2022-08-05T10:39:35Z</time>
      </trkpt>
      <trkpt lat="45.48809" lon="6.41151">
        <ele>1899</ele>
        <time>2022-08-05T10:39:39Z</time>
      </trkpt>
      <trkpt lat="45.48796" lon="6.41149">
        <ele>1898</ele>
        <time>2022-08-05T10:39:45Z</time>
      </trkpt>
      <trkpt lat="45.48791" lon="6.41151">
        <ele>1897</ele>
        <time>2022-08-05T10:39:47Z</time>
      </trkpt>
      <trkpt lat="45.48727" lon="6.41159">
        <ele>1891</ele>
        <time>2022-08-05T10:40:18Z</time>
      </trkpt>
      <trkpt lat="45.48704" lon="6.41158">
        <ele>1888</ele>
        <time>2022-08-05T10:40:29Z</time>
      </trkpt>
      <trkpt lat="45.4869" lon="6.4115">
        <ele>1887</ele>
        <time>2022-08-05T10:40:36Z</time>
      </trkpt>
      <trkpt lat="45.48639" lon="6.41106">
        <ele>1880</ele>
        <time>2022-08-05T10:41:07Z</time>
      </trkpt>
      <trkpt lat="45.48635" lon="6.411">
        <ele>1879</ele>
        <time>2022-08-05T10:41:10Z</time>
      </trkpt>
      <trkpt lat="45.48629" lon="6.41095">
        <ele>1878</ele>
        <time>2022-08-05T10:41:13Z</time>
      </trkpt>
      <trkpt lat="45.48624" lon="6.411">
        <ele>1877</ele>
        <time>2022-08-05T10:41:16Z</time>
      </trkpt>
      <trkpt lat="45.48624" lon="6.41108">
        <ele>1876</ele>
        <time>2022-08-05T10:41:18Z</time>
      </trkpt>
      <trkpt lat="45.48627" lon="6.41113">
        <ele>1876</ele>
        <time>2022-08-05T10:41:20Z</time>
      </trkpt>
      <trkpt lat="45.48664" lon="6.41171">
        <ele>1869</ele>
        <time>2022-08-05T10:41:50Z</time>
      </trkpt>
      <trkpt lat="45.48688" lon="6.41197">
        <ele>1866</ele>
        <time>2022-08-05T10:42:05Z</time>
      </trkpt>
      <trkpt lat="45.48744" lon="6.41241">
        <ele>1860</ele>
        <time>2022-08-05T10:42:36Z</time>
      </trkpt>
      <trkpt lat="45.48762" lon="6.41244">
        <ele>1858</ele>
        <time>2022-08-05T10:42:46Z</time>
      </trkpt>
      <trkpt lat="45.48762" lon="6.41253">
        <ele>1857</ele>
        <time>2022-08-05T10:42:49Z</time>
      </trkpt>
      <trkpt lat="45.48757" lon="6.41255">
        <ele>1856</ele>
        <time>2022-08-05T10:42:51Z</time>
      </trkpt>
      <trkpt lat="45.48753" lon="6.41256">
        <ele>1856</ele>
        <time>2022-08-05T10:42:53Z</time>
      </trkpt>
      <trkpt lat="45.48745" lon="6.41256">
        <ele>1855</ele>
        <time>2022-08-05T10:42:58Z</time>
      </trkpt>
      <trkpt lat="45.48736" lon="6.41252">
        <ele>1855</ele>
        <time>2022-08-05T10:43:06Z</time>
      </trkpt>
      <trkpt lat="45.48725" lon="6.41244">
        <ele>1854</ele>
        <time>2022-08-05T10:43:16Z</time>
      </trkpt>
      <trkpt lat="45.48684" lon="6.41224">
        <ele>1852</ele>
        <time>2022-08-05T10:43:48Z</time>
      </trkpt>
      <trkpt lat="45.48676" lon="6.41218">
        <ele>1851</ele>
        <time>2022-08-05T10:43:54Z</time>
      </trkpt>
      <trkpt lat="45.48649" lon="6.41206">
        <ele>1850</ele>
        <time>2022-08-05T10:44:14Z</time>
      </trkpt>
      <trkpt lat="45.48642" lon="6.41206">
        <ele>1850</ele>
        <time>2022-08-05T10:44:17Z</time>
      </trkpt>
      <trkpt lat="45.48625" lon="6.41218">
        <ele>1849</ele>
        <time>2022-08-05T10:44:26Z</time>
      </trkpt>
      <trkpt lat="45.48627" lon="6.41226">
        <ele>1848</ele>
        <time>2022-08-05T10:44:32Z</time>
      </trkpt>
      <trkpt lat="45.48611" lon="6.41214">
        <ele>1848</ele>
        <time>2022-08-05T10:44:50Z</time>
      </trkpt>
      <trkpt lat="45.48574" lon="6.41166">
        <ele>1844</ele>
        <time>2022-08-05T10:45:23Z</time>
      </trkpt>
      <trkpt lat="45.48569" lon="6.4116">
        <ele>1844</ele>
        <time>2022-08-05T10:45:26Z</time>
      </trkpt>
      <trkpt lat="45.48564" lon="6.41153">
        <ele>1843</ele>
        <time>2022-08-05T10:45:29Z</time>
      </trkpt>
      <trkpt lat="45.48554" lon="6.41139">
        <ele>1842</ele>
        <time>2022-08-05T10:45:36Z</time>
      </trkpt>
      <trkpt lat="45.4855" lon="6.41138">
        <ele>1841</ele>
        <time>2022-08-05T10:45:39Z</time>
      </trkpt>
      <trkpt lat="45.48546" lon="6.41135">
        <ele>1841</ele>
        <time>2022-08-05T10:45:42Z</time>
      </trkpt>
      <trkpt lat="45.48541" lon="6.41129">
        <ele>1840</ele>
        <time>2022-08-05T10:45:45Z</time>
      </trkpt>
      <trkpt lat="45.48537" lon="6.41135">
        <ele>1838</ele>
        <time>2022-08-05T10:45:50Z</time>
      </trkpt>
      <trkpt lat="45.48539" lon="6.41148">
        <ele>1837</ele>
        <time>2022-08-05T10:45:54Z</time>
      </trkpt>
      <trkpt lat="45.4855" lon="6.41187">
        <ele>1831</ele>
        <time>2022-08-05T10:46:09Z</time>
      </trkpt>
      <trkpt lat="45.48545" lon="6.41186">
        <ele>1830</ele>
        <time>2022-08-05T10:46:15Z</time>
      </trkpt>
      <trkpt lat="45.48543" lon="6.41193">
        <ele>1828</ele>
        <time>2022-08-05T10:46:21Z</time>
      </trkpt>
      <trkpt lat="45.4855" lon="6.41225">
        <ele>1824</ele>
        <time>2022-08-05T10:46:34Z</time>
      </trkpt>
      <trkpt lat="45.48544" lon="6.41222">
        <ele>1823</ele>
        <time>2022-08-05T10:46:46Z</time>
      </trkpt>
      <trkpt lat="45.48539" lon="6.41218">
        <ele>1822</ele>
        <time>2022-08-05T10:46:49Z</time>
      </trkpt>
      <trkpt lat="45.48539" lon="6.41233">
        <ele>1821</ele>
        <time>2022-08-05T10:46:58Z</time>
      </trkpt>
      <trkpt lat="45.48535" lon="6.41244">
        <ele>1818</ele>
        <time>2022-08-05T10:47:05Z</time>
      </trkpt>
      <trkpt lat="45.48537" lon="6.4125">
        <ele>1817</ele>
        <time>2022-08-05T10:47:08Z</time>
      </trkpt>
      <trkpt lat="45.48539" lon="6.41255">
        <ele>1816</ele>
        <time>2022-08-05T10:47:11Z</time>
      </trkpt>
      <trkpt lat="45.48536" lon="6.41261">
        <ele>1815</ele>
        <time>2022-08-05T10:47:16Z</time>
      </trkpt>
      <trkpt lat="45.48529" lon="6.41259">
        <ele>1813</ele>
        <time>2022-08-05T10:47:19Z</time>
      </trkpt>
      <trkpt lat="45.48525" lon="6.41256">
        <ele>1812</ele>
        <time>2022-08-05T10:47:22Z</time>
      </trkpt>
      <trkpt lat="45.48516" lon="6.41245">
        <ele>1810</ele>
        <time>2022-08-05T10:47:29Z</time>
      </trkpt>
      <trkpt lat="45.48511" lon="6.41242">
        <ele>1809</ele>
        <time>2022-08-05T10:47:32Z</time>
      </trkpt>
      <trkpt lat="45.48506" lon="6.41235">
        <ele>1807</ele>
        <time>2022-08-05T10:47:36Z</time>
      </trkpt>
      <trkpt lat="45.48503" lon="6.4123">
        <ele>1807</ele>
        <time>2022-08-05T10:47:39Z</time>
      </trkpt>
      <trkpt lat="45.48498" lon="6.41226">
        <ele>1806</ele>
        <time>2022-08-05T10:47:42Z</time>
      </trkpt>
      <trkpt lat="45.48495" lon="6.4122">
        <ele>1806</ele>
        <time>2022-08-05T10:47:45Z</time>
      </trkpt>
      <trkpt lat="45.48482" lon="6.41208">
        <ele>1804</ele>
        <time>2022-08-05T10:47:53Z</time>
      </trkpt>
      <trkpt lat="45.48475" lon="6.41204">
        <ele>1804</ele>
        <time>2022-08-05T10:47:57Z</time>
      </trkpt>
      <trkpt lat="45.48472" lon="6.41198">
        <ele>1803</ele>
        <time>2022-08-05T10:48:00Z</time>
      </trkpt>
      <trkpt lat="45.48467" lon="6.41197">
        <ele>1803</ele>
        <time>2022-08-05T10:48:03Z</time>
      </trkpt>
      <trkpt lat="45.48462" lon="6.41192">
        <ele>1802</ele>
        <time>2022-08-05T10:48:05Z</time>
      </trkpt>
      <trkpt lat="45.4846" lon="6.41187">
        <ele>1802</ele>
        <time>2022-08-05T10:48:08Z</time>
      </trkpt>
      <trkpt lat="45.48426" lon="6.41175">
        <ele>1796</ele>
        <time>2022-08-05T10:48:29Z</time>
      </trkpt>
      <trkpt lat="45.48411" lon="6.41166">
        <ele>1793</ele>
        <time>2022-08-05T10:48:38Z</time>
      </trkpt>
      <trkpt lat="45.48405" lon="6.41168">
        <ele>1792</ele>
        <time>2022-08-05T10:48:41Z</time>
      </trkpt>
      <trkpt lat="45.48395" lon="6.41165">
        <ele>1789</ele>
        <time>2022-08-05T10:48:49Z</time>
      </trkpt>
      <trkpt lat="45.48394" lon="6.41174">
        <ele>1787</ele>
        <time>2022-08-05T10:48:53Z</time>
      </trkpt>
      <trkpt lat="45.484" lon="6.41193">
        <ele>1785</ele>
        <time>2022-08-05T10:49:01Z</time>
      </trkpt>
      <trkpt lat="45.48394" lon="6.41196">
        <ele>1783</ele>
        <time>2022-08-05T10:49:07Z</time>
      </trkpt>
      <trkpt lat="45.48385" lon="6.41193">
        <ele>1781</ele>
        <time>2022-08-05T10:49:13Z</time>
      </trkpt>
      <trkpt lat="45.48384" lon="6.412">
        <ele>1780</ele>
        <time>2022-08-05T10:49:15Z</time>
      </trkpt>
      <trkpt lat="45.48387" lon="6.41206">
        <ele>1779</ele>
        <time>2022-08-05T10:49:18Z</time>
      </trkpt>
      <trkpt lat="45.48385" lon="6.41212">
        <ele>1778</ele>
        <time>2022-08-05T10:49:22Z</time>
      </trkpt>
      <trkpt lat="45.4838" lon="6.41209">
        <ele>1776</ele>
        <time>2022-08-05T10:49:25Z</time>
      </trkpt>
      <trkpt lat="45.48368" lon="6.41196">
        <ele>1774</ele>
        <time>2022-08-05T10:49:36Z</time>
      </trkpt>
      <trkpt lat="45.48364" lon="6.41193">
        <ele>1774</ele>
        <time>2022-08-05T10:49:40Z</time>
      </trkpt>
      <trkpt lat="45.48358" lon="6.4118">
        <ele>1773</ele>
        <time>2022-08-05T10:49:50Z</time>
      </trkpt>
      <trkpt lat="45.4836" lon="6.41187">
        <ele>1772</ele>
        <time>2022-08-05T10:49:56Z</time>
      </trkpt>
      <trkpt lat="45.48368" lon="6.41198">
        <ele>1773</ele>
        <time>2022-08-05T10:50:03Z</time>
      </trkpt>
      <trkpt lat="45.48372" lon="6.41201">
        <ele>1773</ele>
        <time>2022-08-05T10:50:06Z</time>
      </trkpt>
      <trkpt lat="45.48373" lon="6.41208">
        <ele>1774</ele>
        <time>2022-08-05T10:50:10Z</time>
      </trkpt>
      <trkpt lat="45.48369" lon="6.41211">
        <ele>1774</ele>
        <time>2022-08-05T10:50:13Z</time>
      </trkpt>
      <trkpt lat="45.4837" lon="6.41218">
        <ele>1773</ele>
        <time>2022-08-05T10:50:16Z</time>
      </trkpt>
      <trkpt lat="45.48373" lon="6.41229">
        <ele>1770</ele>
        <time>2022-08-05T10:50:22Z</time>
      </trkpt>
      <trkpt lat="45.48367" lon="6.41228">
        <ele>1768</ele>
        <time>2022-08-05T10:50:26Z</time>
      </trkpt>
      <trkpt lat="45.48355" lon="6.41215">
        <ele>1765</ele>
        <time>2022-08-05T10:50:36Z</time>
      </trkpt>
      <trkpt lat="45.48352" lon="6.41233">
        <ele>1761</ele>
        <time>2022-08-05T10:50:45Z</time>
      </trkpt>
      <trkpt lat="45.48347" lon="6.41232">
        <ele>1759</ele>
        <time>2022-08-05T10:50:50Z</time>
      </trkpt>
      <trkpt lat="45.48342" lon="6.41221">
        <ele>1758</ele>
        <time>2022-08-05T10:50:54Z</time>
      </trkpt>
      <trkpt lat="45.48342" lon="6.41214">
        <ele>1757</ele>
        <time>2022-08-05T10:50:58Z</time>
      </trkpt>
      <trkpt lat="45.48332" lon="6.41206">
        <ele>1756</ele>
        <time>2022-08-05T10:51:05Z</time>
      </trkpt>
      <trkpt lat="45.4832" lon="6.41205">
        <ele>1754</ele>
        <time>2022-08-05T10:51:11Z</time>
      </trkpt>
      <trkpt lat="45.48278" lon="6.41144">
        <ele>1750</ele>
        <time>2022-08-05T10:51:42Z</time>
      </trkpt>
      <trkpt lat="45.48254" lon="6.41108">
        <ele>1747</ele>
        <time>2022-08-05T10:51:56Z</time>
      </trkpt>
      <trkpt lat="45.48244" lon="6.41075">
        <ele>1745</ele>
        <time>2022-08-05T10:52:07Z</time>
      </trkpt>
      <trkpt lat="45.4824" lon="6.41048">
        <ele>1744</ele>
        <time>2022-08-05T10:52:15Z</time>
      </trkpt>
      <trkpt lat="45.48236" lon="6.4103">
        <ele>1743</ele>
        <time>2022-08-05T10:52:21Z</time>
      </trkpt>
      <trkpt lat="45.48236" lon="6.41023">
        <ele>1742</ele>
        <time>2022-08-05T10:52:23Z</time>
      </trkpt>
      <trkpt lat="45.48228" lon="6.40974">
        <ele>1740</ele>
        <time>2022-08-05T10:52:41Z</time>
      </trkpt>
      <trkpt lat="45.4823" lon="6.40952">
        <ele>1738</ele>
        <time>2022-08-05T10:52:48Z</time>
      </trkpt>
      <trkpt lat="45.48235" lon="6.40931">
        <ele>1737</ele>
        <time>2022-08-05T10:52:55Z</time>
      </trkpt>
      <trkpt lat="45.48243" lon="6.40919">
        <ele>1737</ele>
        <time>2022-08-05T10:53:01Z</time>
      </trkpt>
      <trkpt lat="45.48249" lon="6.40914">
        <ele>1736</ele>
        <time>2022-08-05T10:53:04Z</time>
      </trkpt>
      <trkpt lat="45.48253" lon="6.40912">
        <ele>1736</ele>
        <time>2022-08-05T10:53:06Z</time>
      </trkpt>
      <trkpt lat="45.48278" lon="6.40862">
        <ele>1730</ele>
        <time>2022-08-05T10:53:31Z</time>
      </trkpt>
      <trkpt lat="45.4828" lon="6.40854">
        <ele>1729</ele>
        <time>2022-08-05T10:53:34Z</time>
      </trkpt>
      <trkpt lat="45.48329" lon="6.40794">
        <ele>1723</ele>
        <time>2022-08-05T10:54:08Z</time>
      </trkpt>
      <trkpt lat="45.48361" lon="6.40756">
        <ele>1719</ele>
        <time>2022-08-05T10:54:31Z</time>
      </trkpt>
      <trkpt lat="45.48367" lon="6.40746">
        <ele>1718</ele>
        <time>2022-08-05T10:54:37Z</time>
      </trkpt>
      <trkpt lat="45.48365" lon="6.40736">
        <ele>1717</ele>
        <time>2022-08-05T10:54:42Z</time>
      </trkpt>
      <trkpt lat="45.48363" lon="6.4073">
        <ele>1716</ele>
        <time>2022-08-05T10:54:45Z</time>
      </trkpt>
      <trkpt lat="45.48359" lon="6.40727">
        <ele>1715</ele>
        <time>2022-08-05T10:54:49Z</time>
      </trkpt>
      <trkpt lat="45.48354" lon="6.40728">
        <ele>1715</ele>
        <time>2022-08-05T10:54:52Z</time>
      </trkpt>
      <trkpt lat="45.48321" lon="6.40766">
        <ele>1709</ele>
        <time>2022-08-05T10:55:18Z</time>
      </trkpt>
      <trkpt lat="45.48293" lon="6.40786">
        <ele>1706</ele>
        <time>2022-08-05T10:55:34Z</time>
      </trkpt>
      <trkpt lat="45.48261" lon="6.40797">
        <ele>1702</ele>
        <time>2022-08-05T10:55:49Z</time>
      </trkpt>
      <trkpt lat="45.48242" lon="6.40812">
        <ele>1700</ele>
        <time>2022-08-05T10:55:59Z</time>
      </trkpt>
      <trkpt lat="45.48229" lon="6.40826">
        <ele>1699</ele>
        <time>2022-08-05T10:56:07Z</time>
      </trkpt>
      <trkpt lat="45.48227" lon="6.40821">
        <ele>1697</ele>
        <time>2022-08-05T10:56:24Z</time>
      </trkpt>
      <trkpt lat="45.48222" lon="6.4082">
        <ele>1697</ele>
        <time>2022-08-05T10:56:28Z</time>
      </trkpt>
      <trkpt lat="45.48212" lon="6.40822">
        <ele>1693</ele>
        <time>2022-08-05T10:56:40Z</time>
      </trkpt>
      <trkpt lat="45.48208" lon="6.40819">
        <ele>1692</ele>
        <time>2022-08-05T10:56:43Z</time>
      </trkpt>
      <trkpt lat="45.48193" lon="6.40823">
        <ele>1690</ele>
        <time>2022-08-05T10:56:55Z</time>
      </trkpt>
      <trkpt lat="45.4817" lon="6.40831">
        <ele>1686</ele>
        <time>2022-08-05T10:57:15Z</time>
      </trkpt>
      <trkpt lat="45.48173" lon="6.40837">
        <ele>1684</ele>
        <time>2022-08-05T10:57:22Z</time>
      </trkpt>
      <trkpt lat="45.48174" lon="6.40849">
        <ele>1682</ele>
        <time>2022-08-05T10:57:33Z</time>
      </trkpt>
      <trkpt lat="45.48176" lon="6.40855">
        <ele>1681</ele>
        <time>2022-08-05T10:57:38Z</time>
      </trkpt>
      <trkpt lat="45.48176" lon="6.40863">
        <ele>1681</ele>
        <time>2022-08-05T10:57:45Z</time>
      </trkpt>
      <trkpt lat="45.48174" lon="6.40869">
        <ele>1681</ele>
        <time>2022-08-05T10:57:50Z</time>
      </trkpt>
      <trkpt lat="45.48171" lon="6.40874">
        <ele>1682</ele>
        <time>2022-08-05T10:57:55Z</time>
      </trkpt>
      <trkpt lat="45.48171" lon="6.40882">
        <ele>1682</ele>
        <time>2022-08-05T10:58:01Z</time>
      </trkpt>
      <trkpt lat="45.48168" lon="6.40895">
        <ele>1684</ele>
        <time>2022-08-05T10:58:10Z</time>
      </trkpt>
      <trkpt lat="45.48162" lon="6.40906">
        <ele>1686</ele>
        <time>2022-08-05T10:58:19Z</time>
      </trkpt>
      <trkpt lat="45.48159" lon="6.40915">
        <ele>1688</ele>
        <time>2022-08-05T10:58:26Z</time>
      </trkpt>
      <trkpt lat="45.48157" lon="6.40921">
        <ele>1688</ele>
        <time>2022-08-05T10:58:29Z</time>
      </trkpt>
      <trkpt lat="45.48136" lon="6.40957">
        <ele>1686</ele>
        <time>2022-08-05T10:58:45Z</time>
      </trkpt>
      <trkpt lat="45.48135" lon="6.40964">
        <ele>1685</ele>
        <time>2022-08-05T10:58:47Z</time>
      </trkpt>
      <trkpt lat="45.48126" lon="6.40976">
        <ele>1684</ele>
        <time>2022-08-05T10:58:52Z</time>
      </trkpt>
      <trkpt lat="45.48125" lon="6.40981">
        <ele>1684</ele>
        <time>2022-08-05T10:58:54Z</time>
      </trkpt>
      <trkpt lat="45.48122" lon="6.40986">
        <ele>1683</ele>
        <time>2022-08-05T10:58:56Z</time>
      </trkpt>
      <trkpt lat="45.48105" lon="6.41049">
        <ele>1679</ele>
        <time>2022-08-05T10:59:16Z</time>
      </trkpt>
      <trkpt lat="45.48102" lon="6.41078">
        <ele>1676</ele>
        <time>2022-08-05T10:59:26Z</time>
      </trkpt>
      <trkpt lat="45.48102" lon="6.41087">
        <ele>1675</ele>
        <time>2022-08-05T10:59:29Z</time>
      </trkpt>
      <trkpt lat="45.48107" lon="6.41119">
        <ele>1672</ele>
        <time>2022-08-05T10:59:39Z</time>
      </trkpt>
      <trkpt lat="45.48113" lon="6.41136">
        <ele>1671</ele>
        <time>2022-08-05T10:59:45Z</time>
      </trkpt>
      <trkpt lat="45.4812" lon="6.41186">
        <ele>1668</ele>
        <time>2022-08-05T11:00:01Z</time>
      </trkpt>
      <trkpt lat="45.48117" lon="6.41193">
        <ele>1667</ele>
        <time>2022-08-05T11:00:04Z</time>
      </trkpt>
      <trkpt lat="45.4811" lon="6.41189">
        <ele>1666</ele>
        <time>2022-08-05T11:00:08Z</time>
      </trkpt>
      <trkpt lat="45.48105" lon="6.41178">
        <ele>1665</ele>
        <time>2022-08-05T11:00:12Z</time>
      </trkpt>
      <trkpt lat="45.48091" lon="6.4114">
        <ele>1662</ele>
        <time>2022-08-05T11:00:26Z</time>
      </trkpt>
      <trkpt lat="45.48085" lon="6.41129">
        <ele>1661</ele>
        <time>2022-08-05T11:00:30Z</time>
      </trkpt>
      <trkpt lat="45.4807" lon="6.41082">
        <ele>1660</ele>
        <time>2022-08-05T11:00:46Z</time>
      </trkpt>
      <trkpt lat="45.48068" lon="6.4106">
        <ele>1658</ele>
        <time>2022-08-05T11:00:53Z</time>
      </trkpt>
      <trkpt lat="45.4807" lon="6.41036">
        <ele>1656</ele>
        <time>2022-08-05T11:01:01Z</time>
      </trkpt>
      <trkpt lat="45.48073" lon="6.41005">
        <ele>1653</ele>
        <time>2022-08-05T11:01:12Z</time>
      </trkpt>
      <trkpt lat="45.48072" lon="6.40963">
        <ele>1649</ele>
        <time>2022-08-05T11:01:26Z</time>
      </trkpt>
      <trkpt lat="45.48074" lon="6.40955">
        <ele>1648</ele>
        <time>2022-08-05T11:01:29Z</time>
      </trkpt>
      <trkpt lat="45.48072" lon="6.40926">
        <ele>1646</ele>
        <time>2022-08-05T11:01:38Z</time>
      </trkpt>
      <trkpt lat="45.48062" lon="6.40881">
        <ele>1644</ele>
        <time>2022-08-05T11:01:53Z</time>
      </trkpt>
      <trkpt lat="45.48063" lon="6.40872">
        <ele>1643</ele>
        <time>2022-08-05T11:01:56Z</time>
      </trkpt>
      <trkpt lat="45.48065" lon="6.40856">
        <ele>1642</ele>
        <time>2022-08-05T11:02:01Z</time>
      </trkpt>
      <trkpt lat="45.48065" lon="6.40827">
        <ele>1639</ele>
        <time>2022-08-05T11:02:11Z</time>
      </trkpt>
      <trkpt lat="45.48067" lon="6.40819">
        <ele>1639</ele>
        <time>2022-08-05T11:02:14Z</time>
      </trkpt>
      <trkpt lat="45.48073" lon="6.40813">
        <ele>1638</ele>
        <time>2022-08-05T11:02:17Z</time>
      </trkpt>
      <trkpt lat="45.48082" lon="6.40804">
        <ele>1637</ele>
        <time>2022-08-05T11:02:22Z</time>
      </trkpt>
      <trkpt lat="45.48121" lon="6.4075">
        <ele>1630</ele>
        <time>2022-08-05T11:02:49Z</time>
      </trkpt>
      <trkpt lat="45.48139" lon="6.40733">
        <ele>1627</ele>
        <time>2022-08-05T11:03:00Z</time>
      </trkpt>
      <trkpt lat="45.48141" lon="6.40725">
        <ele>1626</ele>
        <time>2022-08-05T11:03:03Z</time>
      </trkpt>
      <trkpt lat="45.48149" lon="6.40718">
        <ele>1625</ele>
        <time>2022-08-05T11:03:08Z</time>
      </trkpt>
      <trkpt lat="45.48162" lon="6.40701">
        <ele>1623</ele>
        <time>2022-08-05T11:03:17Z</time>
      </trkpt>
      <trkpt lat="45.48178" lon="6.40681">
        <ele>1620</ele>
        <time>2022-08-05T11:03:29Z</time>
      </trkpt>
      <trkpt lat="45.48184" lon="6.40677">
        <ele>1619</ele>
        <time>2022-08-05T11:03:32Z</time>
      </trkpt>
      <trkpt lat="45.48173" lon="6.40673">
        <ele>1616</ele>
        <time>2022-08-05T11:03:39Z</time>
      </trkpt>
      <trkpt lat="45.48158" lon="6.40671">
        <ele>1611</ele>
        <time>2022-08-05T11:03:53Z</time>
      </trkpt>
      <trkpt lat="45.48138" lon="6.40668">
        <ele>1608</ele>
        <time>2022-08-05T11:04:09Z</time>
      </trkpt>
      <trkpt lat="45.48119" lon="6.40671">
        <ele>1603</ele>
        <time>2022-08-05T11:04:21Z</time>
      </trkpt>
      <trkpt lat="45.48114" lon="6.40673">
        <ele>1602</ele>
        <time>2022-08-05T11:04:24Z</time>
      </trkpt>
      <trkpt lat="45.48109" lon="6.40673">
        <ele>1601</ele>
        <time>2022-08-05T11:04:27Z</time>
      </trkpt>
      <trkpt lat="45.48105" lon="6.40672">
        <ele>1599</ele>
        <time>2022-08-05T11:04:30Z</time>
      </trkpt>
      <trkpt lat="45.48101" lon="6.40668">
        <ele>1598</ele>
        <time>2022-08-05T11:04:33Z</time>
      </trkpt>
      <trkpt lat="45.48096" lon="6.40669">
        <ele>1597</ele>
        <time>2022-08-05T11:04:36Z</time>
      </trkpt>
      <trkpt lat="45.48091" lon="6.40667">
        <ele>1596</ele>
        <time>2022-08-05T11:04:40Z</time>
      </trkpt>
      <trkpt lat="45.48085" lon="6.40668">
        <ele>1595</ele>
        <time>2022-08-05T11:04:44Z</time>
      </trkpt>
      <trkpt lat="45.4808" lon="6.40673">
        <ele>1594</ele>
        <time>2022-08-05T11:04:47Z</time>
      </trkpt>
      <trkpt lat="45.4807" lon="6.40673">
        <ele>1592</ele>
        <time>2022-08-05T11:04:53Z</time>
      </trkpt>
      <trkpt lat="45.48037" lon="6.40696">
        <ele>1585</ele>
        <time>2022-08-05T11:05:15Z</time>
      </trkpt>
      <trkpt lat="45.48028" lon="6.40699">
        <ele>1583</ele>
        <time>2022-08-05T11:05:21Z</time>
      </trkpt>
      <trkpt lat="45.48019" lon="6.40704">
        <ele>1581</ele>
        <time>2022-08-05T11:05:28Z</time>
      </trkpt>
      <trkpt lat="45.48014" lon="6.40705">
        <ele>1579</ele>
        <time>2022-08-05T11:05:32Z</time>
      </trkpt>
      <trkpt lat="45.4801" lon="6.40709">
        <ele>1578</ele>
        <time>2022-08-05T11:05:35Z</time>
      </trkpt>
      <trkpt lat="45.48003" lon="6.40719">
        <ele>1576</ele>
        <time>2022-08-05T11:05:42Z</time>
      </trkpt>
      <trkpt lat="45.48001" lon="6.40725">
        <ele>1574</ele>
        <time>2022-08-05T11:05:46Z</time>
      </trkpt>
      <trkpt lat="45.47991" lon="6.40731">
        <ele>1571</ele>
        <time>2022-08-05T11:05:54Z</time>
      </trkpt>
      <trkpt lat="45.47986" lon="6.40732">
        <ele>1570</ele>
        <time>2022-08-05T11:05:58Z</time>
      </trkpt>
      <trkpt lat="45.47975" lon="6.40746">
        <ele>1566</ele>
        <time>2022-08-05T11:06:08Z</time>
      </trkpt>
      <trkpt lat="45.47966" lon="6.40762">
        <ele>1563</ele>
        <time>2022-08-05T11:06:18Z</time>
      </trkpt>
      <trkpt lat="45.4795" lon="6.40782">
        <ele>1558</ele>
        <time>2022-08-05T11:06:34Z</time>
      </trkpt>
      <trkpt lat="45.47942" lon="6.40798">
        <ele>1554</ele>
        <time>2022-08-05T11:06:47Z</time>
      </trkpt>
      <trkpt lat="45.47938" lon="6.40799">
        <ele>1552</ele>
        <time>2022-08-05T11:06:52Z</time>
      </trkpt>
      <trkpt lat="45.47936" lon="6.40793">
        <ele>1551</ele>
        <time>2022-08-05T11:06:55Z</time>
      </trkpt>
      <trkpt lat="45.47923" lon="6.40811">
        <ele>1547</ele>
        <time>2022-08-05T11:07:11Z</time>
      </trkpt>
      <trkpt lat="45.47919" lon="6.40813">
        <ele>1545</ele>
        <time>2022-08-05T11:07:14Z</time>
      </trkpt>
      <trkpt lat="45.47915" lon="6.40828">
        <ele>1543</ele>
        <time>2022-08-05T11:07:22Z</time>
      </trkpt>
      <trkpt lat="45.47907" lon="6.40836">
        <ele>1542</ele>
        <time>2022-08-05T11:07:28Z</time>
      </trkpt>
      <trkpt lat="45.47904" lon="6.40843">
        <ele>1541</ele>
        <time>2022-08-05T11:07:34Z</time>
      </trkpt>
      <trkpt lat="45.47895" lon="6.40851">
        <ele>1538</ele>
        <time>2022-08-05T11:07:40Z</time>
      </trkpt>
      <trkpt lat="45.47889" lon="6.40862">
        <ele>1537</ele>
        <time>2022-08-05T11:07:45Z</time>
      </trkpt>
      <trkpt lat="45.47875" lon="6.40876">
        <ele>1531</ele>
        <time>2022-08-05T11:08:00Z</time>
      </trkpt>
      <trkpt lat="45.47867" lon="6.40893">
        <ele>1527</ele>
        <time>2022-08-05T11:08:10Z</time>
      </trkpt>
      <trkpt lat="45.47864" lon="6.40897">
        <ele>1526</ele>
        <time>2022-08-05T11:08:13Z</time>
      </trkpt>
      <trkpt lat="45.47854" lon="6.4091">
        <ele>1523</ele>
        <time>2022-08-05T11:08:23Z</time>
      </trkpt>
      <trkpt lat="45.47852" lon="6.40917">
        <ele>1522</ele>
        <time>2022-08-05T11:08:27Z</time>
      </trkpt>
      <trkpt lat="45.47848" lon="6.40921">
        <ele>1522</ele>
        <time>2022-08-05T11:08:31Z</time>
      </trkpt>
      <trkpt lat="45.47843" lon="6.40924">
        <ele>1520</ele>
        <time>2022-08-05T11:08:35Z</time>
      </trkpt>
      <trkpt lat="45.47832" lon="6.40946">
        <ele>1515</ele>
        <time>2022-08-05T11:08:48Z</time>
      </trkpt>
      <trkpt lat="45.4783" lon="6.40953">
        <ele>1514</ele>
        <time>2022-08-05T11:08:52Z</time>
      </trkpt>
      <trkpt lat="45.47826" lon="6.40958">
        <ele>1513</ele>
        <time>2022-08-05T11:08:56Z</time>
      </trkpt>
      <trkpt lat="45.47823" lon="6.40963">
        <ele>1511</ele>
        <time>2022-08-05T11:09:01Z</time>
      </trkpt>
      <trkpt lat="45.47821" lon="6.40957">
        <ele>1509</ele>
        <time>2022-08-05T11:09:08Z</time>
      </trkpt>
      <trkpt lat="45.47821" lon="6.40951">
        <ele>1509</ele>
        <time>2022-08-05T11:09:12Z</time>
      </trkpt>
      <trkpt lat="45.47823" lon="6.40943">
        <ele>1508</ele>
        <time>2022-08-05T11:09:16Z</time>
      </trkpt>
      <trkpt lat="45.47821" lon="6.40937">
        <ele>1508</ele>
        <time>2022-08-05T11:09:19Z</time>
      </trkpt>
      <trkpt lat="45.4782" lon="6.40949">
        <ele>1508</ele>
        <time>2022-08-05T11:09:31Z</time>
      </trkpt>
      <trkpt lat="45.47821" lon="6.40948">
        <ele>1508</ele>
        <time>2022-08-05T11:09:41Z</time>
      </trkpt>
      <trkpt lat="45.47822" lon="6.40938">
        <ele>1508</ele>
        <time>2022-08-05T11:09:45Z</time>
      </trkpt>
      <trkpt lat="45.47831" lon="6.40858">
        <ele>1502</ele>
        <time>2022-08-05T11:10:11Z</time>
      </trkpt>
      <trkpt lat="45.47824" lon="6.40846">
        <ele>1501</ele>
        <time>2022-08-05T11:10:16Z</time>
      </trkpt>
      <trkpt lat="45.4782" lon="6.40844">
        <ele>1500</ele>
        <time>2022-08-05T11:10:20Z</time>
      </trkpt>
      <trkpt lat="45.47816" lon="6.4084">
        <ele>1500</ele>
        <time>2022-08-05T11:10:24Z</time>
      </trkpt>
      <trkpt lat="45.47811" lon="6.4084">
        <ele>1500</ele>
        <time>2022-08-05T11:10:27Z</time>
      </trkpt>
      <trkpt lat="45.47807" lon="6.40846">
        <ele>1499</ele>
        <time>2022-08-05T11:10:31Z</time>
      </trkpt>
      <trkpt lat="45.47802" lon="6.40847">
        <ele>1499</ele>
        <time>2022-08-05T11:10:35Z</time>
      </trkpt>
      <trkpt lat="45.47773" lon="6.40838">
        <ele>1497</ele>
        <time>2022-08-05T11:10:56Z</time>
      </trkpt>
      <trkpt lat="45.47762" lon="6.40842">
        <ele>1496</ele>
        <time>2022-08-05T11:11:02Z</time>
      </trkpt>
      <trkpt lat="45.47732" lon="6.4088">
        <ele>1493</ele>
        <time>2022-08-05T11:11:20Z</time>
      </trkpt>
      <trkpt lat="45.47729" lon="6.40886">
        <ele>1492</ele>
        <time>2022-08-05T11:11:22Z</time>
      </trkpt>
      <trkpt lat="45.47689" lon="6.4093">
        <ele>1486</ele>
        <time>2022-08-05T11:11:46Z</time>
      </trkpt>
      <trkpt lat="45.47688" lon="6.4094">
        <ele>1485</ele>
        <time>2022-08-05T11:11:53Z</time>
      </trkpt>
      <trkpt lat="45.47682" lon="6.40953">
        <ele>1481</ele>
        <time>2022-08-05T11:12:01Z</time>
      </trkpt>
      <trkpt lat="45.47684" lon="6.40959">
        <ele>1479</ele>
        <time>2022-08-05T11:12:04Z</time>
      </trkpt>
      <trkpt lat="45.47675" lon="6.40999">
        <ele>1468</ele>
        <time>2022-08-05T11:12:26Z</time>
      </trkpt>
      <trkpt lat="45.47676" lon="6.41009">
        <ele>1465</ele>
        <time>2022-08-05T11:12:32Z</time>
      </trkpt>
      <trkpt lat="45.47674" lon="6.41015">
        <ele>1463</ele>
        <time>2022-08-05T11:12:36Z</time>
      </trkpt>
      <trkpt lat="45.47674" lon="6.41028">
        <ele>1460</ele>
        <time>2022-08-05T11:12:43Z</time>
      </trkpt>
      <trkpt lat="45.4767" lon="6.41033">
        <ele>1458</ele>
        <time>2022-08-05T11:12:47Z</time>
      </trkpt>
      <trkpt lat="45.47668" lon="6.4104">
        <ele>1456</ele>
        <time>2022-08-05T11:12:51Z</time>
      </trkpt>
      <trkpt lat="45.47668" lon="6.41048">
        <ele>1455</ele>
        <time>2022-08-05T11:12:55Z</time>
      </trkpt>
      <trkpt lat="45.47665" lon="6.41053">
        <ele>1453</ele>
        <time>2022-08-05T11:12:58Z</time>
      </trkpt>
      <trkpt lat="45.47666" lon="6.4106">
        <ele>1452</ele>
        <time>2022-08-05T11:13:02Z</time>
      </trkpt>
      <trkpt lat="45.47668" lon="6.41066">
        <ele>1450</ele>
        <time>2022-08-05T11:13:06Z</time>
      </trkpt>
      <trkpt lat="45.4765" lon="6.41115">
        <ele>1438</ele>
        <time>2022-08-05T11:13:37Z</time>
      </trkpt>
      <trkpt lat="45.47647" lon="6.4112">
        <ele>1437</ele>
        <time>2022-08-05T11:13:41Z</time>
      </trkpt>
      <trkpt lat="45.47645" lon="6.41127">
        <ele>1436</ele>
        <time>2022-08-05T11:13:46Z</time>
      </trkpt>
      <trkpt lat="45.47647" lon="6.41134">
        <ele>1434</ele>
        <time>2022-08-05T11:13:50Z</time>
      </trkpt>
      <trkpt lat="45.47649" lon="6.41139">
        <ele>1433</ele>
        <time>2022-08-05T11:13:54Z</time>
      </trkpt>
      <trkpt lat="45.47647" lon="6.41158">
        <ele>1428</ele>
        <time>2022-08-05T11:14:06Z</time>
      </trkpt>
      <trkpt lat="45.47644" lon="6.41167">
        <ele>1426</ele>
        <time>2022-08-05T11:14:11Z</time>
      </trkpt>
      <trkpt lat="45.47636" lon="6.41178">
        <ele>1425</ele>
        <time>2022-08-05T11:14:18Z</time>
      </trkpt>
      <trkpt lat="45.47614" lon="6.41207">
        <ele>1422</ele>
        <time>2022-08-05T11:14:32Z</time>
      </trkpt>
      <trkpt lat="45.47588" lon="6.41255">
        <ele>1417</ele>
        <time>2022-08-05T11:14:51Z</time>
      </trkpt>
      <trkpt lat="45.47576" lon="6.41297">
        <ele>1413</ele>
        <time>2022-08-05T11:15:06Z</time>
      </trkpt>
      <trkpt lat="45.4757" lon="6.41309">
        <ele>1412</ele>
        <time>2022-08-05T11:15:11Z</time>
      </trkpt>
      <trkpt lat="45.47568" lon="6.41317">
        <ele>1411</ele>
        <time>2022-08-05T11:15:15Z</time>
      </trkpt>
      <trkpt lat="45.47578" lon="6.41324">
        <ele>1407</ele>
        <time>2022-08-05T11:15:28Z</time>
      </trkpt>
      <trkpt lat="45.47582" lon="6.4133">
        <ele>1405</ele>
        <time>2022-08-05T11:15:33Z</time>
      </trkpt>
      <trkpt lat="45.47586" lon="6.41331">
        <ele>1403</ele>
        <time>2022-08-05T11:15:37Z</time>
      </trkpt>
      <trkpt lat="45.47588" lon="6.4134">
        <ele>1401</ele>
        <time>2022-08-05T11:15:45Z</time>
      </trkpt>
      <trkpt lat="45.47584" lon="6.41346">
        <ele>1400</ele>
        <time>2022-08-05T11:15:49Z</time>
      </trkpt>
      <trkpt lat="45.47546" lon="6.41401">
        <ele>1396</ele>
        <time>2022-08-05T11:16:16Z</time>
      </trkpt>
      <trkpt lat="45.4754" lon="6.41418">
        <ele>1395</ele>
        <time>2022-08-05T11:16:23Z</time>
      </trkpt>
      <trkpt lat="45.47524" lon="6.41513">
        <ele>1390</ele>
        <time>2022-08-05T11:16:55Z</time>
      </trkpt>
      <trkpt lat="45.47509" lon="6.41596">
        <ele>1386</ele>
        <time>2022-08-05T11:17:24Z</time>
      </trkpt>
      <trkpt lat="45.475" lon="6.41617">
        <ele>1385</ele>
        <time>2022-08-05T11:17:32Z</time>
      </trkpt>
      <trkpt lat="45.4749" lon="6.41628">
        <ele>1384</ele>
        <time>2022-08-05T11:17:38Z</time>
      </trkpt>
      <trkpt lat="45.47477" lon="6.41634">
        <ele>1383</ele>
        <time>2022-08-05T11:17:44Z</time>
      </trkpt>
      <trkpt lat="45.47462" lon="6.41633">
        <ele>1382</ele>
        <time>2022-08-05T11:17:51Z</time>
      </trkpt>
      <trkpt lat="45.4745" lon="6.41627">
        <ele>1380</ele>
        <time>2022-08-05T11:18:01Z</time>
      </trkpt>
      <trkpt lat="45.47438" lon="6.41615">
        <ele>1379</ele>
        <time>2022-08-05T11:18:12Z</time>
      </trkpt>
      <trkpt lat="45.47436" lon="6.4161">
        <ele>1379</ele>
        <time>2022-08-05T11:18:15Z</time>
      </trkpt>
      <trkpt lat="45.47428" lon="6.41601">
        <ele>1378</ele>
        <time>2022-08-05T11:18:23Z</time>
      </trkpt>
      <trkpt lat="45.47402" lon="6.41568">
        <ele>1375</ele>
        <time>2022-08-05T11:18:49Z</time>
      </trkpt>
      <trkpt lat="45.4739" lon="6.41555">
        <ele>1374</ele>
        <time>2022-08-05T11:19:00Z</time>
      </trkpt>
      <trkpt lat="45.47383" lon="6.41544">
        <ele>1373</ele>
        <time>2022-08-05T11:19:08Z</time>
      </trkpt>
      <trkpt lat="45.47368" lon="6.41525">
        <ele>1372</ele>
        <time>2022-08-05T11:19:22Z</time>
      </trkpt>
      <trkpt lat="45.47361" lon="6.41515">
        <ele>1371</ele>
        <time>2022-08-05T11:19:29Z</time>
      </trkpt>
      <trkpt lat="45.47352" lon="6.41484">
        <ele>1370</ele>
        <time>2022-08-05T11:19:49Z</time>
      </trkpt>
      <trkpt lat="45.47348" lon="6.41478">
        <ele>1369</ele>
        <time>2022-08-05T11:19:53Z</time>
      </trkpt>
      <trkpt lat="45.47343" lon="6.41477">
        <ele>1369</ele>
        <time>2022-08-05T11:19:56Z</time>
      </trkpt>
      <trkpt lat="45.47332" lon="6.41479">
        <ele>1368</ele>
        <time>2022-08-05T11:20:04Z</time>
      </trkpt>
      <trkpt lat="45.47323" lon="6.41485">
        <ele>1368</ele>
        <time>2022-08-05T11:20:12Z</time>
      </trkpt>
      <trkpt lat="45.47319" lon="6.41486">
        <ele>1368</ele>
        <time>2022-08-05T11:20:16Z</time>
      </trkpt>
      <trkpt lat="45.47308" lon="6.41478">
        <ele>1369</ele>
        <time>2022-08-05T11:20:49Z</time>
      </trkpt>
      <trkpt lat="45.47297" lon="6.41469">
        <ele>1370</ele>
        <time>2022-08-05T11:21:05Z</time>
      </trkpt>
      <trkpt lat="45.47278" lon="6.41455">
        <ele>1372</ele>
        <time>2022-08-05T11:21:29Z</time>
      </trkpt>
      <trkpt lat="45.47278" lon="6.41456">
        <ele>1372</ele>
        <time>2022-08-05T11:22:09Z</time>
      </trkpt>
      <trkpt lat="45.47273" lon="6.4145">
        <ele>1372</ele>
        <time>2022-08-05T11:22:33Z</time>
      </trkpt>
      <trkpt lat="45.47268" lon="6.41447">
        <ele>1373</ele>
        <time>2022-08-05T11:22:37Z</time>
      </trkpt>
      <trkpt lat="45.47265" lon="6.41441">
        <ele>1373</ele>
        <time>2022-08-05T11:22:42Z</time>
      </trkpt>
      <trkpt lat="45.47274" lon="6.41441">
        <ele>1374</ele>
        <time>2022-08-05T11:22:55Z</time>
      </trkpt>
    </trkseg>
  </trk>
  <rte>
    <name><![CDATA[4 avr. 2019 à 23:11:12]]></name>
    <cmt><![CDATA[4 avr. 2019 à 23:11:12]]></cmt>
    <desc><![CDATA[{DC1}Heure de fin	: 
Durée totale	: 0h00:00
Moyenne globale	: -
Pente moyenne	: 0.00 %
Aire incluse	: 7.4932 ha
Détails par segments
distance  | durée    | vit.moy. | vit.max. | déniv. + | déniv -
   km     | hh:mn:ss |   km/h   |   km/h   |    m     |    m
     0.81 | 00:00:00 |      0.0 |      0.0 |        0 |        0{DC2}]]></desc>
      <rtept lat="45.60077" lon="6.18221">
        <ele>1608.6</ele>
      </rtept>
      <rtept lat="45.59468" lon="6.1822">
        <ele>1760.9</ele>
      </rtept>
      <rtept lat="45.59468" lon="6.1822">
        <ele>1760.9</ele>
      </rtept>
    </rte>
  <rte>
    <name><![CDATA[10 févr. 2019 à 15:16:12]]></name>
    <cmt><![CDATA[10 févr. 2019 à 15:16:12]]></cmt>
    <desc><![CDATA[{DC1}Heure de fin	: 00:09:21
Durée totale	: -17690439h43:48
Moyenne globale	: -
Pente moyenne	: 7.00 %
Aire incluse	: 221.0936 ha
Détails par segments
distance  | durée    | vit.moy. | vit.max. | déniv. + | déniv -
   km     | hh:mn:ss |   km/h   |   km/h   |    m     |    m
     7.48 | 00:00:00 |      0.0 |      0.0 |        0 |        0{DC2}]]></desc>
      <rtept lat="45.55203" lon="5.93805">
        <ele>376</ele>
      </rtept>
      <rtept lat="45.55177" lon="5.93873">
        <ele>369</ele>
      </rtept>
      <rtept lat="45.55176" lon="5.93942">
        <ele>367</ele>
      </rtept>
      <rtept lat="45.55105" lon="5.93942">
        <ele>367</ele>
      </rtept>
      <rtept lat="45.54993" lon="5.93908">
        <ele>371</ele>
      </rtept>
      <rtept lat="45.54929" lon="5.94099">
        <ele>370</ele>
      </rtept>
      <rtept lat="45.54908" lon="5.94204">
        <ele>367</ele>
      </rtept>
      <rtept lat="45.54991" lon="5.94287">
        <ele>365</ele>
      </rtept>
      <rtept lat="45.5506" lon="5.94384">
        <ele>361</ele>
      </rtept>
      <rtept lat="45.55147" lon="5.94384">
        <ele>357</ele>
      </rtept>
      <rtept lat="45.55129" lon="5.94607">
        <ele>358</ele>
      </rtept>
      <rtept lat="45.55029" lon="5.94809">
        <ele>355</ele>
      </rtept>
      <rtept lat="45.54884" lon="5.94886">
        <ele>346</ele>
      </rtept>
      <rtept lat="45.5477" lon="5.94931">
        <ele>342</ele>
      </rtept>
      <rtept lat="45.5468" lon="5.95004">
        <ele>339</ele>
      </rtept>
      <rtept lat="45.54596" lon="5.95133">
        <ele>340</ele>
      </rtept>
      <rtept lat="45.54446" lon="5.95195">
        <ele>343</ele>
      </rtept>
      <rtept lat="45.543" lon="5.95262">
        <ele>344</ele>
      </rtept>
      <rtept lat="45.54156" lon="5.95212">
        <ele>337</ele>
      </rtept>
      <rtept lat="45.54041" lon="5.95204">
        <ele>338</ele>
      </rtept>
      <rtept lat="45.53917" lon="5.95141">
        <ele>343</ele>
      </rtept>
      <rtept lat="45.53844" lon="5.95135">
        <ele>347</ele>
      </rtept>
      <rtept lat="45.53765" lon="5.9503">
        <ele>349</ele>
      </rtept>
      <rtept lat="45.5381" lon="5.94993">
        <ele>352</ele>
      </rtept>
      <rtept lat="45.53781" lon="5.94901">
        <ele>358</ele>
      </rtept>
      <rtept lat="45.53711" lon="5.94845">
        <ele>365</ele>
      </rtept>
      <rtept lat="45.53702" lon="5.94764">
        <ele>369</ele>
      </rtept>
      <rtept lat="45.53817" lon="5.94807">
        <ele>376</ele>
      </rtept>
      <rtept lat="45.53865" lon="5.94633">
        <ele>389</ele>
      </rtept>
      <rtept lat="45.53778" lon="5.94491">
        <ele>408</ele>
      </rtept>
      <rtept lat="45.53757" lon="5.94371">
        <ele>425</ele>
      </rtept>
      <rtept lat="45.53775" lon="5.94279">
        <ele>434</ele>
      </rtept>
      <rtept lat="45.53726" lon="5.94227">
        <ele>442</ele>
      </rtept>
      <rtept lat="45.53572" lon="5.94146">
        <ele>468</ele>
      </rtept>
      <rtept lat="45.53664" lon="5.94039">
        <ele>483</ele>
      </rtept>
      <rtept lat="45.53532" lon="5.93983">
        <ele>505</ele>
      </rtept>
      <rtept lat="45.53416" lon="5.93985">
        <ele>516</ele>
      </rtept>
      <rtept lat="45.5355" lon="5.93869">
        <ele>532</ele>
      </rtept>
      <rtept lat="45.5359" lon="5.93845">
        <ele>537</ele>
      </rtept>
      <rtept lat="45.5355" lon="5.93802">
        <ele>544</ele>
      </rtept>
      <rtept lat="45.53724" lon="5.93554">
        <ele>587</ele>
      </rtept>
      <rtept lat="45.53691" lon="5.93339">
        <ele>592</ele>
      </rtept>
      <rtept lat="45.5376" lon="5.93178">
        <ele>575</ele>
      </rtept>
      <rtept lat="45.53843" lon="5.93069">
        <ele>555</ele>
      </rtept>
      <rtept lat="45.53939" lon="5.93157">
        <ele>541</ele>
      </rtept>
      <rtept lat="45.54068" lon="5.93234">
        <ele>522</ele>
      </rtept>
      <rtept lat="45.54219" lon="5.93247">
        <ele>514</ele>
      </rtept>
      <rtept lat="45.54355" lon="5.93232">
        <ele>512</ele>
      </rtept>
      <rtept lat="45.54489" lon="5.9326">
        <ele>508</ele>
      </rtept>
      <rtept lat="45.54636" lon="5.93249">
        <ele>510</ele>
      </rtept>
      <rtept lat="45.54758" lon="5.93249">
        <ele>510</ele>
      </rtept>
      <rtept lat="45.54818" lon="5.93298">
        <ele>507</ele>
      </rtept>
      <rtept lat="45.54796" lon="5.93418">
        <ele>496</ele>
      </rtept>
      <rtept lat="45.5491" lon="5.93433">
        <ele>483</ele>
      </rtept>
      <rtept lat="45.55126" lon="5.9341">
        <ele>463</ele>
      </rtept>
      <rtept lat="45.55256" lon="5.93453">
        <ele>444</ele>
      </rtept>
      <rtept lat="45.55329" lon="5.93558">
        <ele>430</ele>
      </rtept>
      <rtept lat="45.55222" lon="5.93642">
        <ele>415</ele>
      </rtept>
      <rtept lat="45.55195" lon="5.93811">
        <ele>375</ele>
      </rtept>
    </rte>
  <rte>
    <name><![CDATA[10 févr. 2019 à 15:15:48]]></name>
    <cmt><![CDATA[10 févr. 2019 à 15:15:48]]></cmt>
    <desc><![CDATA[{DC1}Heure de fin	: 00:09:21
Durée totale	: -17690439h44:12
Moyenne globale	: -
Pente moyenne	: nan %
Aire incluse	: 0.0000 ha
Détails par segments
distance  | durée    | vit.moy. | vit.max. | déniv. + | déniv -
   km     | hh:mn:ss |   km/h   |   km/h   |    m     |    m
     0.00 | 00:00:00 |      0.0 |      0.0 |        0 |        0{DC2}]]></desc>
      <rtept lat="45.5175" lon="5.93483">
        <ele>732.3</ele>
      </rtept>
    </rte>
  <rte>
    <name><![CDATA[10 févr. 2019 à 15:06:08]]></name>
    <cmt><![CDATA[10 févr. 2019 à 15:06:08]]></cmt>
    <desc><![CDATA[{DC1}Heure de fin	: 
Durée totale	: 0h00:00
Moyenne globale	: -
Pente moyenne	: 8.03 %
Aire incluse	: 204.0794 ha
Détails par segments
distance  | durée    | vit.moy. | vit.max. | déniv. + | déniv -
   km     | hh:mn:ss |   km/h   |   km/h   |    m     |    m
    12.88 | 00:00:00 |      0.0 |      0.0 |        0 |        0{DC2}]]></desc>
      <rtept lat="45.5509" lon="5.9394">
        <ele>368</ele>
      </rtept>
      <rtept lat="45.55217" lon="5.93791">
        <ele>377</ele>
      </rtept>
    </rte>
  <rte>
    <name><![CDATA[10 févr. 2019 à 14:22:06]]></name>
    <cmt><![CDATA[10 févr. 2019 à 14:22:06]]></cmt>
    <desc><![CDATA[{DC1}Heure de fin	: 00:09:21
Durée totale	: -17690438h37:54
Moyenne globale	: -
Pente moyenne	: 5.62 %
Aire incluse	: 5.7967 ha
Détails par segments
distance  | durée    | vit.moy. | vit.max. | déniv. + | déniv -
   km     | hh:mn:ss |   km/h   |   km/h   |    m     |    m
     3.30 | 00:00:00 |      0.0 |      0.0 |        0 |        0{DC2}]]></desc>
      <rtept lat="45.55169" lon="5.93089">
        <ele>415</ele>
      </rtept>
      <rtept lat="45.5518" lon="5.93905">
        <ele>366</ele>
      </rtept>
    </rte>
  <rte>
    <name><![CDATA[10 févr. 2019 à 09:50:45]]></name>
    <cmt><![CDATA[10 févr. 2019 à 09:50:45]]></cmt>
    <desc><![CDATA[{DC1}Heure de fin	: 00:09:21
Durée totale	: -17690433h09:14
Moyenne globale	: -
Pente moyenne	: 0.00 %
Aire incluse	: 50.7119 ha
Détails par segments
distance  | durée    | vit.moy. | vit.max. | déniv. + | déniv -
   km     | hh:mn:ss |   km/h   |   km/h   |    m     |    m
     4.33 | 00:00:00 |      0.0 |      0.0 |        0 |        0{DC2}]]></desc>
      <rtept lat="45.5503" lon="5.93918">
        <ele>373.6</ele>
      </rtept>
      <rtept lat="45.55191" lon="5.93893">
        <ele>366.7</ele>
      </rtept>
    </rte>
  <rte>
    <name><![CDATA[10 févr. 2019 à 09:07:08]]></name>
    <cmt><![CDATA[10 févr. 2019 à 09:07:08]]></cmt>
    <desc><![CDATA[{DC1}Heure de fin	: 00:09:21
Durée totale	: -17690433h52:52
Moyenne globale	: -
Pente moyenne	: nan %
Aire incluse	: 0.0000 ha
Détails par segments
distance  | durée    | vit.moy. | vit.max. | déniv. + | déniv -
   km     | hh:mn:ss |   km/h   |   km/h   |    m     |    m
     0.00 | 00:00:00 |      0.0 |      0.0 |        0 |        0{DC2}]]></desc>
      <rtept lat="45.55102" lon="5.93919">
        <ele>370.1</ele>
      </rtept>
    </rte>
  <rte>
    <name><![CDATA[10 févr. 2019 à 09:02:25]]></name>
    <cmt><![CDATA[10 févr. 2019 à 09:02:25]]></cmt>
    <desc><![CDATA[{DC1}Heure de fin	: 00:09:21
Durée totale	: -17690433h57:35
Moyenne globale	: -
Pente moyenne	: nan %
Aire incluse	: 0.0000 ha
Détails par segments
distance  | durée    | vit.moy. | vit.max. | déniv. + | déniv -
   km     | hh:mn:ss |   km/h   |   km/h   |    m     |    m
     0.00 | 00:00:00 |      0.0 |      0.0 |        0 |        0{DC2}]]></desc>
      <rtept lat="45.55207" lon="5.93813">
        <ele>375.2</ele>
      </rtept>
    </rte>
  <rte>
    <name><![CDATA[10 févr. 2019 à 09:00:27]]></name>
    <cmt><![CDATA[10 févr. 2019 à 09:00:27]]></cmt>
    <desc><![CDATA[{DC1}Heure de fin	: 00:09:21
Durée totale	: -17690433h59:32
Moyenne globale	: -
Pente moyenne	: nan %
Aire incluse	: 0.0000 ha
Détails par segments
distance  | durée    | vit.moy. | vit.max. | déniv. + | déniv -
   km     | hh:mn:ss |   km/h   |   km/h   |    m     |    m
     0.00 | 00:00:00 |      0.0 |      0.0 |        0 |        0{DC2}]]></desc>
      <rtept lat="45.55244" lon="5.93858">
        <ele>366.6</ele>
      </rtept>
    </rte>
</gpx>